Observation data for Dozier on 09/12/2017      Previous  Date  Next       Current Mesonet Observations  Soil Data  Daily Summary Page  Observations in Plain Language
KDO1 120500Z 02001KT 19/12 A301 RMK A01 T01900120  RH  064%=      5-min Rain = 0
KDO1 120501Z 01001KT 19/12 A301 RMK A01 T01900120  RH  064%=      5-min Rain = 0
KDO1 120502Z 00001KT 19/12 A301 RMK A01 T01900119  RH  063%=      5-min Rain = 0
KDO1 120503Z 35001KT 19/12 A301 RMK A01 T01910119  RH  063%=      5-min Rain = 0
KDO1 120504Z 35001KT 19/12 A301 RMK A01 T01900118  RH  063%=      5-min Rain = 0
KDO1 120505Z 34001KT 19/12 A301 RMK A01 T01890116  RH  063%=      5-min Rain = 0
KDO1 120506Z 34001KT 19/12 A301 RMK A01 T01890117  RH  063%=      5-min Rain = 0
KDO1 120507Z 33001KT 19/12 A301 RMK A01 T01880117  RH  063%=      5-min Rain = 0
KDO1 120508Z 35001KT 19/12 A301 RMK A01 T01880119  RH  064%=      5-min Rain = 0
KDO1 120509Z 35001KT 19/12 A301 RMK A01 T01880119  RH  064%=      5-min Rain = 0
KDO1 120510Z 35000KT 19/12 A301 RMK A01 T01890119  RH  064%=      5-min Rain = 0
KDO1 120511Z 36000KT 19/12 A301 RMK A01 T01900119  RH  064%=      5-min Rain = 0
KDO1 120512Z 11000KT 19/12 A301 RMK A01 T01900119  RH  063%=      5-min Rain = 0
KDO1 120513Z 00000KT 19/12 A301 RMK A01 T01900118  RH  063%=      5-min Rain = 0
KDO1 120514Z 00000KT 19/12 A301 RMK A01 T01900117  RH  063%=      5-min Rain = 0
KDO1 120515Z 00000KT 19/12 A301 RMK A01 T01900118  RH  063%=      5-min Rain = 0
KDO1 120516Z 00000KT 19/12 A301 RMK A01 T01900117  RH  063%=      5-min Rain = 0
KDO1 120517Z 00000KT 19/12 A301 RMK A01 T01910118  RH  063%=      5-min Rain = 0
KDO1 120518Z 00000KT 19/12 A301 RMK A01 T01910118  RH  063%=      5-min Rain = 0
KDO1 120519Z 00000KT 19/12 A301 RMK A01 T01910118  RH  063%=      5-min Rain = 0
KDO1 120520Z 00000KT 19/12 A301 RMK A01 T01900118  RH  063%=      5-min Rain = 0
KDO1 120521Z 00000KT 19/12 A301 RMK A01 T01900118  RH  063%=      5-min Rain = 0
KDO1 120522Z 00000KT 19/12 A301 RMK A01 T01890119  RH  063%=      5-min Rain = 0
KDO1 120523Z 00000KT 19/12 A301 RMK A01 T01900120  RH  064%=      5-min Rain = 0
KDO1 120524Z 00000KT 19/12 A301 RMK A01 T01890119  RH  064%=      5-min Rain = 0
KDO1 120525Z 00000KT 19/12 A301 RMK A01 T01890119  RH  064%=      5-min Rain = 0
KDO1 120526Z 00000KT 19/12 A301 RMK A01 T01890118  RH  064%=      5-min Rain = 0
KDO1 120527Z 00000KT 19/12 A301 RMK A01 T01880117  RH  063%=      5-min Rain = 0
KDO1 120528Z 00000KT 19/12 A301 RMK A01 T01870116  RH  063%=      5-min Rain = 0
KDO1 120529Z 00000KT 19/12 A301 RMK A01 T01860116  RH  064%=      5-min Rain = 0
KDO1 120530Z 00000KT 19/12 A301 RMK A01 T01860117  RH  064%=      5-min Rain = 0
KDO1 120531Z 00000KT 19/12 A301 RMK A01 T01860118  RH  064%=      5-min Rain = 0
KDO1 120532Z 00000KT 19/12 A301 RMK A01 T01860118  RH  064%=      5-min Rain = 0
KDO1 120533Z 00000KT 19/12 A301 RMK A01 T01860117  RH  064%=      5-min Rain = 0
KDO1 120534Z 00000KT 19/12 A301 RMK A01 T01860118  RH  065%=      5-min Rain = 0
KDO1 120535Z 01000KT 19/12 A301 RMK A01 T01850118  RH  065%=      5-min Rain = 0
KDO1 120536Z 00001KT 19/12 A301 RMK A01 T01850119  RH  065%=      5-min Rain = 0
KDO1 120537Z 01001KT 19/12 A301 RMK A01 T01850119  RH  065%=      5-min Rain = 0
KDO1 120538Z 01001KT 19/12 A301 RMK A01 T01850118  RH  065%=      5-min Rain = 0
KDO1 120539Z 00001KT 19/12 A301 RMK A01 T01850118  RH  065%=      5-min Rain = 0
KDO1 120540Z 36001KT 19/12 A301 RMK A01 T01850118  RH  065%=      5-min Rain = 0
KDO1 120541Z 35001KT 19/12 A301 RMK A01 T01850119  RH  065%=      5-min Rain = 0
KDO1 120542Z 35002KT 19/12 A301 RMK A01 T01860120  RH  065%=      5-min Rain = 0
KDO1 120543Z 35002KT 19/12 A301 RMK A01 T01860119  RH  065%=      5-min Rain = 0
KDO1 120544Z 34002KT 19/12 A301 RMK A01 T01860118  RH  065%=      5-min Rain = 0
KDO1 120545Z 34002KT 19/12 A301 RMK A01 T01860117  RH  064%=      5-min Rain = 0
KDO1 120546Z 34003KT 19/12 A301 RMK A01 T01850117  RH  064%=      5-min Rain = 0
KDO1 120547Z 34002KT 19/12 A301 RMK A01 T01850117  RH  065%=      5-min Rain = 0
KDO1 120548Z 34002KT 18/12 A3009 RMK A01 T01840116  RH  065%=      5-min Rain = 0
KDO1 120549Z 34002KT 18/12 A3009 RMK A01 T01830115  RH  065%=      5-min Rain = 0
KDO1 120550Z 33003KT 18/12 A3009 RMK A01 T01820116  RH  065%=      5-min Rain = 0
KDO1 120551Z 33003KT 18/12 A3009 RMK A01 T01820116  RH  066%=      5-min Rain = 0
KDO1 120552Z 33003KT 18/12 A3009 RMK A01 T01810117  RH  066%=      5-min Rain = 0
KDO1 120553Z 33003KT 18/12 A3009 RMK A01 T01800118  RH  067%=      5-min Rain = 0
KDO1 120554Z 33003KT 18/12 A3009 RMK A01 T01800118  RH  067%=      5-min Rain = 0
KDO1 120555Z 33003KT 18/12 A3009 RMK A01 T01790118  RH  067%=      5-min Rain = 0
KDO1 120556Z 33003KT 18/12 A3009 RMK A01 T01800119  RH  067%=      5-min Rain = 0
KDO1 120557Z 33003KT 18/12 A3009 RMK A01 T01800118  RH  067%=      5-min Rain = 0
KDO1 120558Z 33003KT 18/12 A3009 RMK A01 T01810118  RH  067%=      5-min Rain = 0
KDO1 120559Z 33004KT 18/12 A3009 RMK A01 T01810117  RH  066%=      5-min Rain = 0
KDO1 120600Z 33004KT 18/12 A3009 RMK A01 T01810117  RH  066%=      5-min Rain = 0
KDO1 120601Z 33003KT 18/12 A3009 RMK A01 T01800117  RH  067%=      5-min Rain = 0
KDO1 120602Z 33003KT 18/12 A3009 RMK A01 T01800118  RH  067%=      5-min Rain = 0
KDO1 120603Z 34003KT 18/12 A3009 RMK A01 T01790118  RH  067%=      5-min Rain = 0
KDO1 120604Z 33003KT 18/12 A3009 RMK A01 T01790118  RH  068%=      5-min Rain = 0
KDO1 120605Z 33002KT 18/12 A3009 RMK A01 T01790119  RH  068%=      5-min Rain = 0
KDO1 120606Z 34001KT 18/12 A3009 RMK A01 T01810118  RH  067%=      5-min Rain = 0
KDO1 120607Z 33001KT 18/12 A3009 RMK A01 T01810118  RH  067%=      5-min Rain = 0
KDO1 120608Z 32002KT 18/12 A3009 RMK A01 T01830119  RH  066%=      5-min Rain = 0
KDO1 120609Z 32002KT 18/12 A3009 RMK A01 T01840118  RH  065%=      5-min Rain = 0
KDO1 120610Z 31002KT 18/12 A3009 RMK A01 T01840117  RH  065%=      5-min Rain = 0
KDO1 120611Z 31001KT 18/12 A3009 RMK A01 T01830117  RH  065%=      5-min Rain = 0
KDO1 120612Z 31001KT 18/12 A3009 RMK A01 T01820116  RH  065%=      5-min Rain = 0
KDO1 120613Z 30001KT 18/12 A3009 RMK A01 T01820117  RH  066%=      5-min Rain = 0
KDO1 120614Z 30001KT 18/12 A3009 RMK A01 T01820117  RH  066%=      5-min Rain = 0
KDO1 120615Z 31001KT 18/12 A3009 RMK A01 T01820116  RH  065%=      5-min Rain = 0
KDO1 120616Z 32002KT 18/12 A3009 RMK A01 T01810116  RH  065%=      5-min Rain = 0
KDO1 120617Z 33002KT 18/12 A3009 RMK A01 T01810117  RH  066%=      5-min Rain = 0
KDO1 120618Z 33002KT 18/12 A3009 RMK A01 T01800118  RH  067%=      5-min Rain = 0
KDO1 120619Z 35002KT 18/12 A3009 RMK A01 T01810118  RH  066%=      5-min Rain = 0
KDO1 120620Z 36000KT 18/12 A3009 RMK A01 T01820117  RH  066%=      5-min Rain = 0
KDO1 120621Z 35000KT 18/12 A3009 RMK A01 T01800116  RH  066%=      5-min Rain = 0
KDO1 120622Z 34001KT 18/12 A3009 RMK A01 T01780116  RH  067%=      5-min Rain = 0
KDO1 120623Z 34001KT 18/12 A3009 RMK A01 T01760116  RH  068%=      5-min Rain = 0
KDO1 120624Z 32002KT 18/12 A3009 RMK A01 T01760116  RH  068%=      5-min Rain = 0
KDO1 120625Z 31002KT 18/12 A3009 RMK A01 T01750116  RH  068%=      5-min Rain = 0
KDO1 120626Z 32001KT 18/12 A3009 RMK A01 T01760117  RH  068%=      5-min Rain = 0
KDO1 120627Z 32001KT 18/12 A3009 RMK A01 T01760116  RH  068%=      5-min Rain = 0
KDO1 120628Z 32000KT 18/12 A3009 RMK A01 T01760115  RH  068%=      5-min Rain = 0
KDO1 120629Z 00000KT 18/11 A3009 RMK A01 T01760114  RH  067%=      5-min Rain = 0
KDO1 120630Z 00000KT 18/11 A3009 RMK A01 T01760114  RH  067%=      5-min Rain = 0
KDO1 120631Z 31000KT 18/11 A3009 RMK A01 T01750114  RH  067%=      5-min Rain = 0
KDO1 120632Z 31001KT 18/11 A3009 RMK A01 T01750114  RH  067%=      5-min Rain = 0
KDO1 120633Z 30002KT 18/11 A3009 RMK A01 T01750112  RH  067%=      5-min Rain = 0
KDO1 120634Z 30002KT 17/11 A3009 RMK A01 T01740112  RH  067%=      5-min Rain = 0
KDO1 120635Z 30003KT 17/11 A3009 RMK A01 T01730111  RH  067%=      5-min Rain = 0
KDO1 120636Z 30003KT 17/11 A3009 RMK A01 T01720112  RH  068%=      5-min Rain = 0
KDO1 120637Z 31003KT 17/11 A3009 RMK A01 T01710113  RH  068%=      5-min Rain = 0
KDO1 120638Z 31003KT 17/12 A3009 RMK A01 T01710115  RH  069%=      5-min Rain = 0
KDO1 120639Z 32002KT 17/12 A3009 RMK A01 T01730117  RH  070%=      5-min Rain = 0
KDO1 120640Z 33002KT 17/12 A3009 RMK A01 T01740117  RH  069%=      5-min Rain = 0
KDO1 120641Z 33002KT 18/12 A3009 RMK A01 T01750118  RH  069%=      5-min Rain = 0
KDO1 120642Z 34002KT 18/12 A3009 RMK A01 T01750118  RH  069%=      5-min Rain = 0
KDO1 120643Z 35002KT 18/12 A3009 RMK A01 T01760117  RH  068%=      5-min Rain = 0
KDO1 120644Z 35002KT 18/12 A3009 RMK A01 T01750116  RH  068%=      5-min Rain = 0
KDO1 120645Z 35002KT 18/12 A3009 RMK A01 T01750116  RH  068%=      5-min Rain = 0
KDO1 120646Z 35002KT 17/12 A3009 RMK A01 T01740117  RH  069%=      5-min Rain = 0
KDO1 120647Z 35002KT 17/12 A3009 RMK A01 T01740118  RH  070%=      5-min Rain = 0
KDO1 120648Z 34002KT 17/12 A3009 RMK A01 T01740118  RH  070%=      5-min Rain = 0
KDO1 120649Z 34002KT 17/12 A3009 RMK A01 T01740117  RH  069%=      5-min Rain = 0
KDO1 120650Z 35002KT 17/12 A3009 RMK A01 T01740115  RH  068%=      5-min Rain = 0
KDO1 120651Z 35002KT 17/12 A3009 RMK A01 T01740115  RH  068%=      5-min Rain = 0
KDO1 120652Z 01001KT 17/12 A3009 RMK A01 T01730115  RH  069%=      5-min Rain = 0
KDO1 120653Z 01002KT 17/11 A3009 RMK A01 T01730114  RH  068%=      5-min Rain = 0
KDO1 120654Z 03001KT 17/12 A3009 RMK A01 T01730115  RH  069%=      5-min Rain = 0
KDO1 120655Z 03002KT 17/11 A3009 RMK A01 T01730114  RH  068%=      5-min Rain = 0
KDO1 120656Z 03003KT 17/11 A3009 RMK A01 T01720114  RH  069%=      5-min Rain = 0
KDO1 120657Z 02003KT 17/12 A3009 RMK A01 T01720115  RH  069%=      5-min Rain = 0
KDO1 120658Z 02003KT 17/11 A3009 RMK A01 T01710114  RH  069%=      5-min Rain = 0
KDO1 120659Z 02003KT 17/12 A3009 RMK A01 T01710115  RH  070%=      5-min Rain = 0
KDO1 120700Z 02004KT 17/12 A3009 RMK A01 T01710117  RH  070%=      5-min Rain = 0
KDO1 120701Z 02004KT 17/12 A3009 RMK A01 T01710117  RH  071%=      5-min Rain = 0
KDO1 120702Z 02004KT 17/12 A3009 RMK A01 T01700117  RH  071%=      5-min Rain = 0
KDO1 120703Z 02005KT 17/12 A3009 RMK A01 T01700116  RH  070%=      5-min Rain = 0
KDO1 120704Z 02005KT 17/12 A3009 RMK A01 T01700116  RH  071%=      5-min Rain = 0
KDO1 120705Z 02004KT 17/12 A3009 RMK A01 T01700116  RH  071%=      5-min Rain = 0
KDO1 120706Z 01004KT 17/12 A3009 RMK A01 T01700116  RH  070%=      5-min Rain = 0
KDO1 120707Z 02004KT 17/12 A3009 RMK A01 T01700115  RH  070%=      5-min Rain = 0
KDO1 120708Z 01005KT 17/12 A3009 RMK A01 T01710115  RH  070%=      5-min Rain = 0
KDO1 120709Z 01005KT 17/12 A3009 RMK A01 T01700115  RH  070%=      5-min Rain = 0
KDO1 120710Z 01005KT 17/11 A3009 RMK A01 T01690114  RH  070%=      5-min Rain = 0
KDO1 120711Z 01005KT 17/11 A3009 RMK A01 T01680114  RH  070%=      5-min Rain = 0
KDO1 120712Z 01005KT 17/11 A3009 RMK A01 T01680114  RH  071%=      5-min Rain = 0
KDO1 120713Z 01005KT 17/11 A3009 RMK A01 T01670114  RH  071%=      5-min Rain = 0
KDO1 120714Z 01005KT 17/11 A3009 RMK A01 T01670114  RH  071%=      5-min Rain = 0
KDO1 120715Z 01005KT 17/11 A3009 RMK A01 T01670114  RH  071%=      5-min Rain = 0
KDO1 120716Z 01005KT 17/11 A3009 RMK A01 T01670114  RH  071%=      5-min Rain = 0
KDO1 120717Z 01005KT 17/11 A3009 RMK A01 T01670114  RH  071%=      5-min Rain = 0
KDO1 120718Z 01005KT 17/11 A3009 RMK A01 T01670113  RH  071%=      5-min Rain = 0
KDO1 120719Z 02005KT 17/11 A3009 RMK A01 T01660113  RH  071%=      5-min Rain = 0
KDO1 120720Z 01005KT 17/11 A3009 RMK A01 T01660114  RH  071%=      5-min Rain = 0
KDO1 120721Z 01004KT 17/11 A3009 RMK A01 T01660114  RH  071%=      5-min Rain = 0
KDO1 120722Z 01004KT 17/11 A3009 RMK A01 T01660113  RH  071%=      5-min Rain = 0
KDO1 120723Z 01004KT 17/11 A3009 RMK A01 T01660113  RH  071%=      5-min Rain = 0
KDO1 120724Z 01004KT 17/11 A3009 RMK A01 T01660113  RH  071%=      5-min Rain = 0
KDO1 120725Z 02003KT 17/11 A3009 RMK A01 T01670114  RH  071%=      5-min Rain = 0
KDO1 120726Z 02004KT 17/11 A3009 RMK A01 T01670113  RH  071%=      5-min Rain = 0
KDO1 120727Z 02003KT 17/11 A3009 RMK A01 T01670114  RH  071%=      5-min Rain = 0
KDO1 120728Z 02004KT 17/11 A3009 RMK A01 T01660113  RH  071%=      5-min Rain = 0
KDO1 120729Z 02003KT 17/11 A3008 RMK A01 T01660113  RH  071%=      5-min Rain = 0
KDO1 120730Z 01004KT 17/11 A3008 RMK A01 T01660113  RH  071%=      5-min Rain = 0
KDO1 120731Z 01003KT 17/11 A3008 RMK A01 T01670113  RH  071%=      5-min Rain = 0
KDO1 120732Z 01003KT 17/11 A3008 RMK A01 T01670114  RH  071%=      5-min Rain = 0
KDO1 120733Z 01003KT 17/11 A3008 RMK A01 T01680114  RH  071%=      5-min Rain = 0
KDO1 120734Z 02003KT 17/11 A3008 RMK A01 T01690114  RH  070%=      5-min Rain = 0
KDO1 120735Z 02003KT 17/11 A3008 RMK A01 T01690114  RH  070%=      5-min Rain = 0
KDO1 120736Z 02003KT 17/11 A3008 RMK A01 T01700114  RH  070%=      5-min Rain = 0
KDO1 120737Z 02003KT 17/11 A3008 RMK A01 T01700114  RH  069%=      5-min Rain = 0
KDO1 120738Z 02003KT 17/11 A3008 RMK A01 T01700114  RH  069%=      5-min Rain = 0
KDO1 120739Z 04003KT 17/11 A3008 RMK A01 T01710114  RH  069%=      5-min Rain = 0
KDO1 120740Z 04003KT 17/11 A3008 RMK A01 T01720114  RH  069%=      5-min Rain = 0
KDO1 120741Z 04002KT 17/11 A3008 RMK A01 T01730114  RH  069%=      5-min Rain = 0
KDO1 120742Z 03002KT 17/12 A3008 RMK A01 T01730115  RH  068%=      5-min Rain = 0
KDO1 120743Z 03002KT 17/12 A3008 RMK A01 T01740115  RH  068%=      5-min Rain = 0
KDO1 120744Z 03002KT 17/11 A3008 RMK A01 T01740114  RH  068%=      5-min Rain = 0
KDO1 120745Z 03002KT 17/11 A3008 RMK A01 T01740114  RH  068%=      5-min Rain = 0
KDO1 120746Z 03002KT 17/11 A3008 RMK A01 T01740114  RH  068%=      5-min Rain = 0
KDO1 120747Z 03002KT 17/12 A3008 RMK A01 T01740115  RH  068%=      5-min Rain = 0
KDO1 120748Z 02002KT 17/11 A3008 RMK A01 T01740114  RH  068%=      5-min Rain = 0
KDO1 120749Z 02002KT 17/11 A3008 RMK A01 T01740114  RH  068%=      5-min Rain = 0
KDO1 120750Z 02002KT 17/11 A3008 RMK A01 T01740114  RH  068%=      5-min Rain = 0
KDO1 120751Z 03002KT 17/11 A3008 RMK A01 T01730114  RH  068%=      5-min Rain = 0
KDO1 120752Z 04002KT 17/11 A3008 RMK A01 T01730114  RH  068%=      5-min Rain = 0
KDO1 120753Z 04003KT 17/11 A3008 RMK A01 T01730114  RH  068%=      5-min Rain = 0
KDO1 120754Z 04002KT 17/11 A3008 RMK A01 T01730114  RH  068%=      5-min Rain = 0
KDO1 120755Z 03002KT 17/11 A3008 RMK A01 T01740114  RH  068%=      5-min Rain = 0
KDO1 120756Z 03002KT 18/11 A3008 RMK A01 T01750114  RH  068%=      5-min Rain = 0
KDO1 120757Z 03002KT 18/12 A3008 RMK A01 T01760115  RH  067%=      5-min Rain = 0
KDO1 120758Z 03002KT 18/12 A3008 RMK A01 T01760115  RH  067%=      5-min Rain = 0
KDO1 120759Z 04002KT 18/12 A3008 RMK A01 T01770115  RH  067%=      5-min Rain = 0
KDO1 120800Z 03002KT 18/12 A3008 RMK A01 T01770115  RH  067%=      5-min Rain = 0
KDO1 120801Z 04002KT 18/11 A3008 RMK A01 T01770114  RH  067%=      5-min Rain = 0
KDO1 120802Z 04002KT 18/12 A3008 RMK A01 T01770115  RH  067%=      5-min Rain = 0
KDO1 120803Z 04002KT 18/12 A3008 RMK A01 T01760115  RH  067%=      5-min Rain = 0
KDO1 120804Z 03002KT 18/12 A3008 RMK A01 T01770115  RH  067%=      5-min Rain = 0
KDO1 120805Z 03002KT 18/11 A3008 RMK A01 T01760114  RH  067%=      5-min Rain = 0
KDO1 120806Z 03002KT 18/11 A3008 RMK A01 T01750114  RH  067%=      5-min Rain = 0
KDO1 120807Z 03002KT 17/11 A3008 RMK A01 T01740114  RH  068%=      5-min Rain = 0
KDO1 120808Z 03002KT 17/11 A3008 RMK A01 T01740114  RH  068%=      5-min Rain = 0
KDO1 120809Z 03002KT 17/11 A3008 RMK A01 T01740114  RH  068%=      5-min Rain = 0
KDO1 120810Z 03002KT 17/11 A3008 RMK A01 T01740114  RH  068%=      5-min Rain = 0
KDO1 120811Z 03002KT 17/11 A3008 RMK A01 T01740114  RH  068%=      5-min Rain = 0
KDO1 120812Z 03003KT 17/11 A3008 RMK A01 T01740114  RH  068%=      5-min Rain = 0
KDO1 120813Z 02003KT 17/11 A3008 RMK A01 T01740114  RH  068%=      5-min Rain = 0
KDO1 120814Z 02003KT 17/11 A3008 RMK A01 T01740114  RH  068%=      5-min Rain = 0
KDO1 120815Z 03003KT 18/11 A3008 RMK A01 T01750114  RH  068%=      5-min Rain = 0
KDO1 120816Z 03003KT 18/11 A3008 RMK A01 T01750114  RH  068%=      5-min Rain = 0
KDO1 120817Z 03003KT 18/11 A3008 RMK A01 T01750114  RH  068%=      5-min Rain = 0
KDO1 120818Z 03003KT 18/12 A3008 RMK A01 T01750115  RH  068%=      5-min Rain = 0
KDO1 120819Z 02003KT 18/11 A3008 RMK A01 T01750114  RH  068%=      5-min Rain = 0
KDO1 120820Z 02003KT 18/12 A3008 RMK A01 T01750115  RH  068%=      5-min Rain = 0
KDO1 120821Z 02003KT 18/12 A3008 RMK A01 T01750115  RH  068%=      5-min Rain = 0
KDO1 120822Z 02003KT 17/11 A3008 RMK A01 T01740114  RH  068%=      5-min Rain = 0
KDO1 120823Z 02003KT 17/12 A3008 RMK A01 T01740115  RH  068%=      5-min Rain = 0
KDO1 120824Z 02003KT 17/12 A3008 RMK A01 T01740115  RH  068%=      5-min Rain = 0
KDO1 120825Z 01003KT 17/11 A3008 RMK A01 T01730114  RH  068%=      5-min Rain = 0
KDO1 120826Z 01003KT 17/11 A3008 RMK A01 T01730114  RH  068%=      5-min Rain = 0
KDO1 120827Z 01003KT 17/11 A3008 RMK A01 T01730114  RH  068%=      5-min Rain = 0
KDO1 120828Z 01004KT 17/11 A3008 RMK A01 T01720113  RH  068%=      5-min Rain = 0
KDO1 120829Z 01004KT 17/11 A3008 RMK A01 T01720113  RH  068%=      5-min Rain = 0
KDO1 120830Z 01004KT 17/11 A3008 RMK A01 T01710113  RH  069%=      5-min Rain = 0
KDO1 120831Z 01004KT 17/11 A3008 RMK A01 T01700113  RH  069%=      5-min Rain = 0
KDO1 120832Z 01003KT 17/11 A3008 RMK A01 T01700113  RH  069%=      5-min Rain = 0
KDO1 120833Z 01003KT 17/11 A3008 RMK A01 T01700113  RH  069%=      5-min Rain = 0
KDO1 120834Z 01003KT 17/11 A3008 RMK A01 T01710113  RH  069%=      5-min Rain = 0
KDO1 120835Z 01004KT 17/11 A3008 RMK A01 T01710113  RH  069%=      5-min Rain = 0
KDO1 120836Z 01004KT 17/11 A3008 RMK A01 T01710113  RH  069%=      5-min Rain = 0
KDO1 120837Z 01004KT 17/11 A3008 RMK A01 T01710113  RH  069%=      5-min Rain = 0
KDO1 120838Z 02004KT 17/11 A3008 RMK A01 T01710113  RH  069%=      5-min Rain = 0
KDO1 120839Z 02004KT 17/11 A3008 RMK A01 T01700113  RH  069%=      5-min Rain = 0
KDO1 120840Z 01003KT 17/11 A3008 RMK A01 T01700113  RH  069%=      5-min Rain = 0
KDO1 120841Z 01004KT 17/11 A3008 RMK A01 T01710113  RH  069%=      5-min Rain = 0
KDO1 120842Z 01004KT 17/11 A3008 RMK A01 T01710114  RH  069%=      5-min Rain = 0
KDO1 120843Z 01003KT 17/11 A3008 RMK A01 T01700113  RH  069%=      5-min Rain = 0
KDO1 120844Z 02004KT 17/11 A3008 RMK A01 T01710114  RH  069%=      5-min Rain = 0
KDO1 120845Z 02004KT 17/11 A3008 RMK A01 T01710114  RH  069%=      5-min Rain = 0
KDO1 120846Z 02004KT 17/11 A3008 RMK A01 T01710114  RH  069%=      5-min Rain = 0
KDO1 120847Z 02003KT 17/11 A3008 RMK A01 T01700114  RH  069%=      5-min Rain = 0
KDO1 120848Z 02003KT 17/11 A3008 RMK A01 T01700114  RH  069%=      5-min Rain = 0
KDO1 120849Z 02003KT 17/11 A3008 RMK A01 T01710114  RH  069%=      5-min Rain = 0
KDO1 120850Z 02003KT 17/11 A3008 RMK A01 T01700114  RH  069%=      5-min Rain = 0
KDO1 120851Z 02003KT 17/11 A3008 RMK A01 T01700114  RH  070%=      5-min Rain = 0
KDO1 120852Z 02003KT 17/11 A3008 RMK A01 T01700114  RH  070%=      5-min Rain = 0
KDO1 120853Z 02003KT 17/11 A3008 RMK A01 T01690114  RH  070%=      5-min Rain = 0
KDO1 120854Z 02003KT 17/11 A3008 RMK A01 T01680114  RH  070%=      5-min Rain = 0
KDO1 120855Z 01003KT 17/11 A3007 RMK A01 T01680113  RH  070%=      5-min Rain = 0
KDO1 120856Z 01004KT 17/11 A3007 RMK A01 T01670114  RH  071%=      5-min Rain = 0
KDO1 120857Z 01004KT 17/11 A3007 RMK A01 T01660113  RH  071%=      5-min Rain = 0
KDO1 120858Z 01004KT 17/11 A3007 RMK A01 T01660113  RH  071%=      5-min Rain = 0
KDO1 120859Z 01004KT 17/11 A3007 RMK A01 T01650113  RH  071%=      5-min Rain = 0
KDO1 120900Z 01004KT 17/11 A3007 RMK A01 T01650113  RH  071%=      5-min Rain = 0
KDO1 120901Z 01004KT 17/11 A3007 RMK A01 T01650112  RH  071%=      5-min Rain = 0
KDO1 120902Z 01004KT 17/11 A3007 RMK A01 T01650112  RH  071%=      5-min Rain = 0
KDO1 120903Z 01004KT 16/11 A3007 RMK A01 T01640112  RH  071%=      5-min Rain = 0
KDO1 120904Z 01004KT 16/11 A3007 RMK A01 T01640112  RH  071%=      5-min Rain = 0
KDO1 120905Z 01003KT 16/11 A3007 RMK A01 T01640113  RH  072%=      5-min Rain = 0
KDO1 120906Z 01003KT 16/11 A3007 RMK A01 T01640113  RH  072%=      5-min Rain = 0
KDO1 120907Z 02003KT 16/11 A3008 RMK A01 T01640112  RH  071%=      5-min Rain = 0
KDO1 120908Z 01003KT 16/11 A3007 RMK A01 T01640112  RH  071%=      5-min Rain = 0
KDO1 120909Z 01003KT 16/11 A3007 RMK A01 T01640112  RH  071%=      5-min Rain = 0
KDO1 120910Z 01003KT 16/11 A3007 RMK A01 T01630112  RH  071%=      5-min Rain = 0
KDO1 120911Z 01003KT 16/11 A3007 RMK A01 T01640112  RH  071%=      5-min Rain = 0
KDO1 120912Z 01003KT 16/11 A3007 RMK A01 T01640112  RH  072%=      5-min Rain = 0
KDO1 120913Z 01003KT 16/11 A3007 RMK A01 T01640113  RH  072%=      5-min Rain = 0
KDO1 120914Z 01003KT 16/11 A3007 RMK A01 T01640112  RH  072%=      5-min Rain = 0
KDO1 120915Z 01003KT 16/11 A3007 RMK A01 T01640113  RH  071%=      5-min Rain = 0
KDO1 120916Z 01002KT 16/11 A3007 RMK A01 T01640112  RH  071%=      5-min Rain = 0
KDO1 120917Z 01002KT 16/11 A3007 RMK A01 T01640112  RH  071%=      5-min Rain = 0
KDO1 120918Z 00002KT 17/11 A3007 RMK A01 T01650112  RH  071%=      5-min Rain = 0
KDO1 120919Z 01003KT 17/11 A3007 RMK A01 T01650113  RH  071%=      5-min Rain = 0
KDO1 120920Z 00002KT 17/11 A3007 RMK A01 T01650113  RH  071%=      5-min Rain = 0
KDO1 120921Z 00003KT 17/11 A3007 RMK A01 T01650112  RH  071%=      5-min Rain = 0
KDO1 120922Z 36003KT 17/11 A3007 RMK A01 T01650113  RH  071%=      5-min Rain = 0
KDO1 120923Z 35003KT 17/11 A3007 RMK A01 T01650113  RH  071%=      5-min Rain = 0
KDO1 120924Z 35003KT 17/11 A3007 RMK A01 T01660113  RH  071%=      5-min Rain = 0
KDO1 120925Z 35003KT 17/11 A3007 RMK A01 T01660113  RH  071%=      5-min Rain = 0
KDO1 120926Z 35002KT 17/11 A3007 RMK A01 T01660113  RH  071%=      5-min Rain = 0
KDO1 120927Z 35002KT 17/11 A3007 RMK A01 T01660113  RH  071%=      5-min Rain = 0
KDO1 120928Z 35002KT 17/11 A3007 RMK A01 T01660112  RH  071%=      5-min Rain = 0
KDO1 120929Z 35003KT 17/11 A3007 RMK A01 T01660113  RH  071%=      5-min Rain = 0
KDO1 120930Z 36003KT 17/11 A3007 RMK A01 T01660112  RH  071%=      5-min Rain = 0
KDO1 120931Z 35003KT 17/11 A3007 RMK A01 T01660112  RH  071%=      5-min Rain = 0
KDO1 120932Z 35002KT 17/11 A3007 RMK A01 T01660113  RH  071%=      5-min Rain = 0
KDO1 120933Z 35002KT 17/11 A3007 RMK A01 T01660113  RH  071%=      5-min Rain = 0
KDO1 120934Z 35003KT 17/11 A3007 RMK A01 T01650113  RH  071%=      5-min Rain = 0
KDO1 120935Z 35003KT 17/11 A3007 RMK A01 T01650112  RH  071%=      5-min Rain = 0
KDO1 120936Z 35003KT 16/11 A3007 RMK A01 T01640112  RH  071%=      5-min Rain = 0
KDO1 120937Z 36002KT 16/11 A3007 RMK A01 T01630112  RH  071%=      5-min Rain = 0
KDO1 120938Z 00002KT 16/11 A3007 RMK A01 T01630111  RH  071%=      5-min Rain = 0
KDO1 120939Z 00003KT 16/11 A3007 RMK A01 T01630111  RH  071%=      5-min Rain = 0
KDO1 120940Z 00003KT 16/11 A3007 RMK A01 T01620111  RH  071%=      5-min Rain = 0
KDO1 120941Z 00003KT 16/11 A3006 RMK A01 T01620111  RH  072%=      5-min Rain = 0
KDO1 120942Z 36003KT 16/11 A3006 RMK A01 T01610111  RH  072%=      5-min Rain = 0
KDO1 120943Z 36003KT 16/11 A3006 RMK A01 T01610111  RH  073%=      5-min Rain = 0
KDO1 120944Z 00003KT 16/11 A3006 RMK A01 T01600111  RH  073%=      5-min Rain = 0
KDO1 120945Z 36003KT 16/11 A3006 RMK A01 T01590110  RH  073%=      5-min Rain = 0
KDO1 120946Z 00003KT 16/11 A3006 RMK A01 T01580110  RH  073%=      5-min Rain = 0
KDO1 120947Z 00003KT 16/11 A3006 RMK A01 T01580111  RH  074%=      5-min Rain = 0
KDO1 120948Z 00004KT 16/11 A3006 RMK A01 T01580112  RH  074%=      5-min Rain = 0
KDO1 120949Z 00004KT 16/11 A3006 RMK A01 T01580112  RH  074%=      5-min Rain = 0
KDO1 120950Z 00004KT 16/11 A3007 RMK A01 T01590111  RH  073%=      5-min Rain = 0
KDO1 120951Z 00004KT 16/11 A3007 RMK A01 T01590111  RH  073%=      5-min Rain = 0
KDO1 120952Z 00004KT 16/11 A3007 RMK A01 T01590111  RH  073%=      5-min Rain = 0
KDO1 120953Z 00004KT 16/11 A3007 RMK A01 T01590111  RH  073%=      5-min Rain = 0
KDO1 120954Z 00004KT 16/11 A3007 RMK A01 T01600112  RH  073%=      5-min Rain = 0
KDO1 120955Z 36004KT 16/11 A3007 RMK A01 T01610111  RH  072%=      5-min Rain = 0
KDO1 120956Z 36004KT 16/11 A3007 RMK A01 T01610111  RH  072%=      5-min Rain = 0
KDO1 120957Z 36004KT 16/11 A3006 RMK A01 T01620111  RH  072%=      5-min Rain = 0
KDO1 120958Z 35004KT 16/11 A3006 RMK A01 T01630112  RH  072%=      5-min Rain = 0
KDO1 120959Z 35004KT 16/11 A3006 RMK A01 T01630112  RH  071%=      5-min Rain = 0
KDO1 121000Z 35004KT 16/11 A3006 RMK A01 T01640112  RH  071%=      5-min Rain = 0
KDO1 121001Z 35004KT 16/11 A3006 RMK A01 T01640112  RH  071%=      5-min Rain = 0
KDO1 121002Z 35004KT 17/11 A3006 RMK A01 T01650112  RH  071%=      5-min Rain = 0
KDO1 121003Z 35004KT 17/11 A3006 RMK A01 T01650112  RH  071%=      5-min Rain = 0
KDO1 121004Z 35004KT 17/11 A3006 RMK A01 T01650112  RH  071%=      5-min Rain = 0
KDO1 121005Z 35004KT 17/11 A3006 RMK A01 T01650112  RH  071%=      5-min Rain = 0
KDO1 121006Z 35004KT 17/11 A3006 RMK A01 T01650112  RH  071%=      5-min Rain = 0
KDO1 121007Z 36004KT 17/11 A3006 RMK A01 T01650112  RH  071%=      5-min Rain = 0
KDO1 121008Z 00004KT 17/11 A3006 RMK A01 T01650112  RH  071%=      5-min Rain = 0
KDO1 121009Z 36004KT 17/11 A3006 RMK A01 T01650112  RH  070%=      5-min Rain = 0
KDO1 121010Z 36004KT 17/11 A3006 RMK A01 T01650112  RH  071%=      5-min Rain = 0
KDO1 121011Z 36004KT 17/11 A3006 RMK A01 T01660113  RH  071%=      5-min Rain = 0
KDO1 121012Z 36004KT 17/11 A3006 RMK A01 T01670113  RH  071%=      5-min Rain = 0
KDO1 121013Z 36004KT 17/11 A3006 RMK A01 T01670113  RH  070%=      5-min Rain = 0
KDO1 121014Z 00005KT 17/11 A3006 RMK A01 T01670113  RH  070%=      5-min Rain = 0
KDO1 121015Z 35005KT 17/11 A3006 RMK A01 T01660113  RH  071%=      5-min Rain = 0
KDO1 121016Z 35005KT 17/11 A3006 RMK A01 T01650112  RH  071%=      5-min Rain = 0
KDO1 121017Z 35005KT 17/11 A3006 RMK A01 T01650113  RH  071%=      5-min Rain = 0
KDO1 121018Z 35004KT 17/11 A3006 RMK A01 T01650113  RH  071%=      5-min Rain = 0
KDO1 121019Z 35004KT 16/11 A3006 RMK A01 T01640112  RH  071%=      5-min Rain = 0
KDO1 121020Z 35004KT 16/11 A3006 RMK A01 T01630112  RH  071%=      5-min Rain = 0
KDO1 121021Z 35004KT 16/11 A3006 RMK A01 T01630111  RH  072%=      5-min Rain = 0
KDO1 121022Z 35004KT 16/11 A3006 RMK A01 T01620111  RH  072%=      5-min Rain = 0
KDO1 121023Z 35004KT 16/11 A3006 RMK A01 T01610112  RH  072%=      5-min Rain = 0
KDO1 121024Z 35005KT 16/11 A3006 RMK A01 T01610111  RH  072%=      5-min Rain = 0
KDO1 121025Z 35005KT 16/11 A3006 RMK A01 T01610112  RH  072%=      5-min Rain = 0
KDO1 121026Z 35005KT 16/11 A3006 RMK A01 T01610112  RH  073%=      5-min Rain = 0
KDO1 121027Z 35005KT 16/11 A3006 RMK A01 T01610112  RH  073%=      5-min Rain = 0
KDO1 121028Z 35005KT 16/11 A3006 RMK A01 T01610112  RH  072%=      5-min Rain = 0
KDO1 121029Z 35005KT 16/11 A3006 RMK A01 T01620112  RH  072%=      5-min Rain = 0
KDO1 121030Z 35005KT 16/11 A3006 RMK A01 T01610112  RH  072%=      5-min Rain = 0
KDO1 121031Z 35005KT 16/11 A3006 RMK A01 T01610112  RH  072%=      5-min Rain = 0
KDO1 121032Z 35005KT 16/11 A3006 RMK A01 T01610112  RH  073%=      5-min Rain = 0
KDO1 121033Z 35005KT 16/11 A3006 RMK A01 T01610112  RH  073%=      5-min Rain = 0
KDO1 121034Z 34005KT 16/11 A3006 RMK A01 T01610112  RH  073%=      5-min Rain = 0
KDO1 121035Z 35005KT 16/11 A3006 RMK A01 T01610112  RH  073%=      5-min Rain = 0
KDO1 121036Z 35005KT 16/11 A3006 RMK A01 T01600112  RH  073%=      5-min Rain = 0
KDO1 121037Z 35005KT 16/11 A3006 RMK A01 T01600112  RH  073%=      5-min Rain = 0
KDO1 121038Z 35005KT 16/11 A3006 RMK A01 T01610112  RH  073%=      5-min Rain = 0
KDO1 121039Z 36005KT 16/11 A3006 RMK A01 T01600112  RH  073%=      5-min Rain = 0
KDO1 121040Z 36005KT 16/11 A3006 RMK A01 T01600112  RH  073%=      5-min Rain = 0
KDO1 121041Z 00005KT 16/11 A3006 RMK A01 T01600111  RH  073%=      5-min Rain = 0
KDO1 121042Z 00005KT 16/11 A3006 RMK A01 T01600112  RH  073%=      5-min Rain = 0
KDO1 121043Z 00005KT 16/11 A3006 RMK A01 T01600112  RH  073%=      5-min Rain = 0
KDO1 121044Z 01004KT 16/11 A3006 RMK A01 T01600112  RH  073%=      5-min Rain = 0
KDO1 121045Z 01003KT 16/11 A3006 RMK A01 T01610112  RH  073%=      5-min Rain = 0
KDO1 121046Z 01003KT 16/11 A3007 RMK A01 T01610112  RH  072%=      5-min Rain = 0
KDO1 121047Z 01003KT 16/11 A3007 RMK A01 T01600111  RH  073%=      5-min Rain = 0
KDO1 121048Z 01003KT 16/11 A3007 RMK A01 T01590110  RH  073%=      5-min Rain = 0
KDO1 121049Z 01004KT 16/11 A3007 RMK A01 T01570110  RH  074%=      5-min Rain = 0
KDO1 121050Z 00004KT 16/11 A3007 RMK A01 T01560111  RH  074%=      5-min Rain = 0
KDO1 121051Z 00005KT 16/11 A3007 RMK A01 T01560111  RH  075%=      5-min Rain = 0
KDO1 121052Z 36005KT 16/11 A3007 RMK A01 T01560112  RH  075%=      5-min Rain = 0
KDO1 121053Z 36005KT 16/11 A3007 RMK A01 T01560111  RH  074%=      5-min Rain = 0
KDO1 121054Z 00006KT 16/11 A3007 RMK A01 T01550110  RH  075%=      5-min Rain = 0
KDO1 121055Z 00006KT 15/11 A3007 RMK A01 T01540110  RH  075%=      5-min Rain = 0
KDO1 121056Z 00006KT 15/11 A3006 RMK A01 T01540110  RH  075%=      5-min Rain = 0
KDO1 121057Z 36006KT 15/11 A3006 RMK A01 T01540110  RH  075%=      5-min Rain = 0
KDO1 121058Z 36006KT 15/11 A3006 RMK A01 T01540111  RH  075%=      5-min Rain = 0
KDO1 121059Z 36005KT 15/11 A3006 RMK A01 T01540111  RH  075%=      5-min Rain = 0
KDO1 121100Z 00005KT 15/11 A3006 RMK A01 T01540110  RH  075%=      5-min Rain = 0
KDO1 121101Z 00005KT 15/11 A3006 RMK A01 T01540110  RH  075%=      5-min Rain = 0
KDO1 121102Z 00005KT 15/11 A3006 RMK A01 T01540110  RH  075%=      5-min Rain = 0
KDO1 121103Z 00005KT 15/11 A3006 RMK A01 T01540110  RH  075%=      5-min Rain = 0
KDO1 121104Z 00005KT 15/11 A3006 RMK A01 T01540110  RH  075%=      5-min Rain = 0
KDO1 121105Z 00005KT 15/11 A3006 RMK A01 T01540110  RH  075%=      5-min Rain = 0
KDO1 121106Z 00005KT 15/11 A3006 RMK A01 T01530109  RH  075%=      5-min Rain = 0
KDO1 121107Z 36006KT 15/11 A3006 RMK A01 T01530109  RH  075%=      5-min Rain = 0
KDO1 121108Z 36006KT 15/11 A3006 RMK A01 T01520109  RH  075%=      5-min Rain = 0
KDO1 121109Z 36006KT 15/11 A3006 RMK A01 T01520109  RH  076%=      5-min Rain = 0
KDO1 121110Z 35006KT 15/11 A3006 RMK A01 T01510109  RH  076%=      5-min Rain = 0
KDO1 121111Z 35006KT 15/11 A3006 RMK A01 T01510110  RH  076%=      5-min Rain = 0
KDO1 121112Z 35005KT 15/11 A3006 RMK A01 T01510110  RH  076%=      5-min Rain = 0
KDO1 121113Z 35006KT 15/11 A3006 RMK A01 T01520110  RH  076%=      5-min Rain = 0
KDO1 121114Z 35005KT 15/11 A3006 RMK A01 T01520110  RH  076%=      5-min Rain = 0
KDO1 121115Z 36005KT 15/11 A3006 RMK A01 T01530110  RH  076%=      5-min Rain = 0
KDO1 121116Z 00005KT 15/11 A3006 RMK A01 T01530111  RH  076%=      5-min Rain = 0
KDO1 121117Z 00005KT 15/11 A3006 RMK A01 T01530111  RH  076%=      5-min Rain = 0
KDO1 121118Z 00005KT 15/11 A3006 RMK A01 T01530111  RH  076%=      5-min Rain = 0
KDO1 121119Z 00005KT 15/11 A3006 RMK A01 T01530111  RH  076%=      5-min Rain = 0
KDO1 121120Z 00005KT 15/11 A3006 RMK A01 T01540111  RH  076%=      5-min Rain = 0
KDO1 121121Z 00005KT 15/11 A3006 RMK A01 T01540111  RH  076%=      5-min Rain = 0
KDO1 121122Z 00005KT 15/11 A3006 RMK A01 T01540111  RH  075%=      5-min Rain = 0
KDO1 121123Z 01004KT 16/11 A3006 RMK A01 T01550112  RH  075%=      5-min Rain = 0
KDO1 121124Z 01004KT 16/11 A3006 RMK A01 T01550112  RH  075%=      5-min Rain = 0
KDO1 121125Z 01004KT 16/11 A3006 RMK A01 T01550112  RH  075%=      5-min Rain = 0
KDO1 121126Z 00005KT 16/11 A3006 RMK A01 T01550111  RH  075%=      5-min Rain = 0
KDO1 121127Z 00005KT 15/11 A3006 RMK A01 T01540111  RH  075%=      5-min Rain = 0
KDO1 121128Z 36006KT 15/11 A3006 RMK A01 T01540110  RH  075%=      5-min Rain = 0
KDO1 121129Z 36006KT 15/11 A3006 RMK A01 T01530110  RH  075%=      5-min Rain = 0
KDO1 121130Z 36006KT 15/11 A3006 RMK A01 T01530110  RH  076%=      5-min Rain = 0
KDO1 121131Z 36006KT 15/11 A3006 RMK A01 T01520110  RH  076%=      5-min Rain = 0
KDO1 121132Z 36006KT 15/11 A3006 RMK A01 T01520110  RH  076%=      5-min Rain = 0
KDO1 121133Z 35006KT 15/11 A3006 RMK A01 T01520110  RH  076%=      5-min Rain = 0
KDO1 121134Z 36006KT 15/11 A3006 RMK A01 T01510110  RH  076%=      5-min Rain = 0
KDO1 121135Z 00005KT 15/11 A3006 RMK A01 T01510110  RH  076%=      5-min Rain = 0
KDO1 121136Z 36005KT 15/11 A3006 RMK A01 T01520111  RH  076%=      5-min Rain = 0
KDO1 121137Z 36005KT 15/11 A3006 RMK A01 T01530111  RH  076%=      5-min Rain = 0
KDO1 121138Z 35005KT 15/11 A3006 RMK A01 T01530110  RH  076%=      5-min Rain = 0
KDO1 121139Z 35006KT 15/11 A3006 RMK A01 T01520110  RH  076%=      5-min Rain = 0
KDO1 121140Z 35006KT 15/11 A3006 RMK A01 T01530111  RH  076%=      5-min Rain = 0
KDO1 121141Z 35005KT 15/11 A3006 RMK A01 T01530111  RH  076%=      5-min Rain = 0
KDO1 121142Z 35005KT 15/11 A3006 RMK A01 T01530111  RH  076%=      5-min Rain = 0
KDO1 121143Z 35005KT 15/11 A3006 RMK A01 T01520111  RH  076%=      5-min Rain = 0
KDO1 121144Z 35005KT 15/11 A3006 RMK A01 T01520111  RH  076%=      5-min Rain = 0
KDO1 121145Z 36005KT 15/11 A3006 RMK A01 T01520111  RH  076%=      5-min Rain = 0
KDO1 121146Z 36005KT 15/11 A3006 RMK A01 T01520111  RH  076%=      5-min Rain = 0
KDO1 121147Z 35005KT 15/11 A3006 RMK A01 T01520111  RH  076%=      5-min Rain = 0
KDO1 121148Z 35005KT 15/11 A3006 RMK A01 T01530112  RH  076%=      5-min Rain = 0
KDO1 121149Z 35005KT 15/11 A3006 RMK A01 T01530111  RH  076%=      5-min Rain = 0
KDO1 121150Z 35005KT 15/11 A3006 RMK A01 T01540111  RH  076%=      5-min Rain = 0
KDO1 121151Z 36005KT 15/11 A3006 RMK A01 T01540111  RH  076%=      5-min Rain = 0
KDO1 121152Z 36005KT 15/11 A3007 RMK A01 T01540112  RH  076%=      5-min Rain = 0
KDO1 121153Z 00005KT 15/11 A3007 RMK A01 T01540112  RH  076%=      5-min Rain = 0
KDO1 121154Z 00005KT 16/11 A3007 RMK A01 T01550112  RH  076%=      5-min Rain = 0
KDO1 121155Z 00005KT 16/11 A3007 RMK A01 T01550112  RH  075%=      5-min Rain = 0
KDO1 121156Z 00005KT 16/11 A3007 RMK A01 T01550112  RH  075%=      5-min Rain = 0
KDO1 121157Z 00006KT 16/11 A3007 RMK A01 T01550111  RH  075%=      5-min Rain = 0
KDO1 121158Z 00006KT 16/11 A3007 RMK A01 T01550111  RH  075%=      5-min Rain = 0
KDO1 121159Z 00005KT 16/11 A3006 RMK A01 T01550111  RH  075%=      5-min Rain = 0
KDO1 121200Z 00005KT 16/11 A3006 RMK A01 T01550112  RH  075%=      5-min Rain = 0
KDO1 121201Z 00005KT 16/11 A3006 RMK A01 T01550112  RH  075%=      5-min Rain = 0
KDO1 121202Z 36005KT 16/11 A3006 RMK A01 T01550111  RH  075%=      5-min Rain = 0
KDO1 121203Z 35005KT 16/11 A3006 RMK A01 T01550111  RH  075%=      5-min Rain = 0
KDO1 121204Z 35005KT 16/11 A3006 RMK A01 T01550112  RH  075%=      5-min Rain = 0
KDO1 121205Z 35005KT 16/11 A3006 RMK A01 T01550112  RH  075%=      5-min Rain = 0
KDO1 121206Z 35005KT 16/11 A3006 RMK A01 T01550112  RH  076%=      5-min Rain = 0
KDO1 121207Z 35004KT 16/11 A3006 RMK A01 T01550112  RH  076%=      5-min Rain = 0
KDO1 121208Z 34004KT 15/11 A3006 RMK A01 T01540111  RH  076%=      5-min Rain = 0
KDO1 121209Z 34004KT 15/11 A3006 RMK A01 T01530111  RH  076%=      5-min Rain = 0
KDO1 121210Z 34004KT 15/11 A3006 RMK A01 T01520111  RH  076%=      5-min Rain = 0
KDO1 121211Z 34003KT 15/11 A3006 RMK A01 T01510110  RH  077%=      5-min Rain = 0
KDO1 121212Z 34002KT 15/11 A3006 RMK A01 T01510110  RH  077%=      5-min Rain = 0
KDO1 121213Z 34002KT 15/11 A3006 RMK A01 T01500110  RH  077%=      5-min Rain = 0
KDO1 121214Z 34002KT 15/11 A3006 RMK A01 T01490110  RH  077%=      5-min Rain = 0
KDO1 121215Z 34002KT 15/11 A3006 RMK A01 T01490110  RH  077%=      5-min Rain = 0
KDO1 121216Z 34002KT 15/11 A3006 RMK A01 T01480110  RH  078%=      5-min Rain = 0
KDO1 121217Z 34003KT 15/11 A3006 RMK A01 T01480110  RH  078%=      5-min Rain = 0
KDO1 121218Z 34003KT 15/11 A3006 RMK A01 T01470109  RH  078%=      5-min Rain = 0
KDO1 121219Z 34003KT 15/11 A3006 RMK A01 T01470109  RH  078%=      5-min Rain = 0
KDO1 121220Z 35003KT 15/11 A3006 RMK A01 T01460109  RH  078%=      5-min Rain = 0
KDO1 121221Z 35004KT 15/11 A3006 RMK A01 T01460110  RH  079%=      5-min Rain = 0
KDO1 121222Z 35004KT 15/11 A3006 RMK A01 T01460109  RH  079%=      5-min Rain = 0
KDO1 121223Z 35004KT 15/11 A3006 RMK A01 T01460109  RH  078%=      5-min Rain = 0
KDO1 121224Z 35004KT 15/11 A3006 RMK A01 T01460109  RH  078%=      5-min Rain = 0
KDO1 121225Z 35004KT 15/11 A3006 RMK A01 T01470110  RH  079%=      5-min Rain = 0
KDO1 121226Z 34004KT 15/11 A3006 RMK A01 T01480111  RH  079%=      5-min Rain = 0
KDO1 121227Z 34004KT 15/11 A3006 RMK A01 T01480111  RH  078%=      5-min Rain = 0
KDO1 121228Z 34004KT 15/11 A3006 RMK A01 T01480111  RH  078%=      5-min Rain = 0
KDO1 121229Z 34004KT 15/11 A3006 RMK A01 T01480111  RH  078%=      5-min Rain = 0
KDO1 121230Z 34003KT 15/11 A3006 RMK A01 T01480110  RH  078%=      5-min Rain = 0
KDO1 121231Z 33003KT 15/11 A3006 RMK A01 T01470109  RH  078%=      5-min Rain = 0
KDO1 121232Z 33003KT 15/11 A3006 RMK A01 T01450109  RH  079%=      5-min Rain = 0
KDO1 121233Z 33003KT 14/11 A3006 RMK A01 T01430109  RH  080%=      5-min Rain = 0
KDO1 121234Z 33003KT 14/11 A3006 RMK A01 T01420109  RH  080%=      5-min Rain = 0
KDO1 121235Z 34003KT 14/11 A3006 RMK A01 T01420109  RH  081%=      5-min Rain = 0
KDO1 121236Z 34003KT 14/11 A3006 RMK A01 T01420109  RH  081%=      5-min Rain = 0
KDO1 121237Z 34003KT 14/11 A3006 RMK A01 T01420109  RH  081%=      5-min Rain = 0
KDO1 121238Z 34003KT 14/11 A3006 RMK A01 T01420109  RH  081%=      5-min Rain = 0
KDO1 121239Z 35003KT 14/11 A3006 RMK A01 T01420108  RH  080%=      5-min Rain = 0
KDO1 121240Z 35002KT 14/11 A3006 RMK A01 T01420109  RH  080%=      5-min Rain = 0
KDO1 121241Z 00002KT 14/11 A3006 RMK A01 T01420109  RH  080%=      5-min Rain = 0
KDO1 121242Z 00001KT 14/11 A3006 RMK A01 T01430109  RH  080%=      5-min Rain = 0
KDO1 121243Z 01001KT 14/11 A3006 RMK A01 T01440109  RH  080%=      5-min Rain = 0
KDO1 121244Z 02001KT 14/11 A3006 RMK A01 T01430109  RH  080%=      5-min Rain = 0
KDO1 121245Z 03001KT 14/11 A3006 RMK A01 T01430108  RH  079%=      5-min Rain = 0
KDO1 121246Z 03002KT 14/11 A3006 RMK A01 T01420107  RH  079%=      5-min Rain = 0
KDO1 121247Z 04002KT 14/11 A3006 RMK A01 T01400106  RH  080%=      5-min Rain = 0
KDO1 121248Z 05002KT 14/11 A3006 RMK A01 T01390105  RH  080%=      5-min Rain = 0
KDO1 121249Z 05001KT 14/11 A3006 RMK A01 T01380105  RH  080%=      5-min Rain = 0
KDO1 121250Z 04002KT 14/10 A3006 RMK A01 T01370104  RH  080%=      5-min Rain = 0
KDO1 121251Z 02002KT 14/10 A3006 RMK A01 T01360104  RH  081%=      5-min Rain = 0
KDO1 121252Z 02002KT 14/10 A3006 RMK A01 T01360104  RH  081%=      5-min Rain = 0
KDO1 121253Z 01003KT 14/10 A3006 RMK A01 T01360104  RH  081%=      5-min Rain = 0
KDO1 121254Z 00003KT 14/10 A3006 RMK A01 T01360104  RH  081%=      5-min Rain = 0
KDO1 121255Z 01003KT 14/11 A3006 RMK A01 T01380105  RH  081%=      5-min Rain = 0
KDO1 121256Z 01003KT 14/11 A3006 RMK A01 T01380106  RH  081%=      5-min Rain = 0
KDO1 121257Z 01003KT 14/11 A3006 RMK A01 T01400106  RH  080%=      5-min Rain = 0
KDO1 121258Z 01003KT 14/11 A3006 RMK A01 T01410107  RH  080%=      5-min Rain = 0
KDO1 121259Z 00003KT 14/11 A3006 RMK A01 T01420108  RH  080%=      5-min Rain = 0
KDO1 121300Z 00004KT 14/11 A3006 RMK A01 T01440110  RH  080%=      5-min Rain = 0
KDO1 121301Z 00004KT 15/11 A3006 RMK A01 T01460111  RH  079%=      5-min Rain = 0
KDO1 121302Z 36004KT 15/11 A3006 RMK A01 T01480111  RH  078%=      5-min Rain = 0
KDO1 121303Z 35004KT 15/11 A3006 RMK A01 T01490111  RH  078%=      5-min Rain = 0
KDO1 121304Z 35004KT 15/11 A3006 RMK A01 T01500111  RH  078%=      5-min Rain = 0
KDO1 121305Z 34004KT 15/11 A3006 RMK A01 T01510112  RH  077%=      5-min Rain = 0
KDO1 121306Z 34004KT 15/11 A3006 RMK A01 T01510112  RH  077%=      5-min Rain = 0
KDO1 121307Z 34004KT 15/11 A3006 RMK A01 T01510112  RH  077%=      5-min Rain = 0
KDO1 121308Z 34004KT 15/11 A3006 RMK A01 T01520112  RH  077%=      5-min Rain = 0
KDO1 121309Z 34004KT 15/11 A3006 RMK A01 T01530113  RH  077%=      5-min Rain = 0
KDO1 121310Z 33004KT 15/11 A3006 RMK A01 T01530113  RH  077%=      5-min Rain = 0
KDO1 121311Z 33003KT 15/11 A3006 RMK A01 T01540114  RH  077%=      5-min Rain = 0
KDO1 121312Z 32003KT 15/11 A3006 RMK A01 T01540114  RH  077%=      5-min Rain = 0
KDO1 121313Z 31002KT 16/12 A3006 RMK A01 T01550115  RH  077%=      5-min Rain = 0
KDO1 121314Z 32002KT 16/12 A3006 RMK A01 T01550115  RH  077%=      5-min Rain = 0
KDO1 121315Z 32002KT 16/12 A3006 RMK A01 T01550115  RH  077%=      5-min Rain = 0
KDO1 121316Z 32002KT 16/12 A3006 RMK A01 T01560116  RH  077%=      5-min Rain = 0
KDO1 121317Z 33002KT 16/12 A3006 RMK A01 T01570116  RH  077%=      5-min Rain = 0
KDO1 121318Z 33001KT 16/12 A3006 RMK A01 T01580118  RH  077%=      5-min Rain = 0
KDO1 121319Z 33000KT 16/12 A3006 RMK A01 T01590117  RH  076%=      5-min Rain = 0
KDO1 121320Z 33000KT 16/12 A3006 RMK A01 T01600117  RH  076%=      5-min Rain = 0
KDO1 121321Z 31000KT 16/12 A3006 RMK A01 T01610117  RH  075%=      5-min Rain = 0
KDO1 121322Z 31001KT 16/12 A3006 RMK A01 T01620118  RH  075%=      5-min Rain = 0
KDO1 121323Z 33001KT 16/12 A3006 RMK A01 T01620118  RH  075%=      5-min Rain = 0
KDO1 121324Z 33001KT 16/12 A3006 RMK A01 T01620118  RH  075%=      5-min Rain = 0
KDO1 121325Z 33002KT 16/12 A3006 RMK A01 T01620119  RH  076%=      5-min Rain = 0
KDO1 121326Z 33002KT 16/12 A3006 RMK A01 T01620119  RH  076%=      5-min Rain = 0
KDO1 121327Z 33001KT 16/12 A3006 RMK A01 T01630120  RH  076%=      5-min Rain = 0
KDO1 121328Z 33001KT 16/12 A3006 RMK A01 T01630121  RH  076%=      5-min Rain = 0
KDO1 121329Z 34001KT 17/12 A3006 RMK A01 T01650122  RH  076%=      5-min Rain = 0
KDO1 121330Z 35001KT 17/12 A3006 RMK A01 T01670122  RH  075%=      5-min Rain = 0
KDO1 121331Z 00000KT 17/12 A3006 RMK A01 T01680123  RH  075%=      5-min Rain = 0
KDO1 121332Z 04000KT 17/12 A3006 RMK A01 T01700123  RH  074%=      5-min Rain = 0
KDO1 121333Z 00000KT 17/12 A3006 RMK A01 T01730123  RH  073%=      5-min Rain = 0
KDO1 121334Z 03000KT 18/12 A3006 RMK A01 T01760124  RH  071%=      5-min Rain = 0
KDO1 121335Z 00000KT 18/13 A3006 RMK A01 T01790126  RH  071%=      5-min Rain = 0
KDO1 121336Z 00000KT 18/13 A3006 RMK A01 T01810126  RH  070%=      5-min Rain = 0
KDO1 121337Z 00000KT 18/13 A3006 RMK A01 T01840126  RH  069%=      5-min Rain = 0
KDO1 121338Z 34000KT 19/13 A3006 RMK A01 T01860127  RH  068%=      5-min Rain = 0
KDO1 121339Z 00000KT 19/13 A3006 RMK A01 T01870126  RH  067%=      5-min Rain = 0
KDO1 121340Z 00000KT 19/12 A3006 RMK A01 T01880124  RH  066%=      5-min Rain = 0
KDO1 121341Z 00000KT 19/12 A3006 RMK A01 T01890124  RH  066%=      5-min Rain = 0
KDO1 121342Z 33000KT 19/12 A3006 RMK A01 T01900124  RH  066%=      5-min Rain = 0
KDO1 121343Z 00000KT 19/12 A3006 RMK A01 T01900124  RH  065%=      5-min Rain = 0
KDO1 121344Z 00000KT 19/13 A3006 RMK A01 T01910125  RH  065%=      5-min Rain = 0
KDO1 121345Z 00000KT 19/12 A3006 RMK A01 T01920124  RH  065%=      5-min Rain = 0
KDO1 121346Z 07000KT 19/12 A3006 RMK A01 T01930124  RH  065%=      5-min Rain = 0
KDO1 121347Z 12000KT 19/12 A3006 RMK A01 T01940124  RH  064%=      5-min Rain = 0
KDO1 121348Z 10000KT 20/13 A3006 RMK A01 T01950125  RH  064%=      5-min Rain = 0
KDO1 121349Z 10001KT 20/13 A3006 RMK A01 T01960128  RH  065%=      5-min Rain = 0
KDO1 121350Z 10001KT 20/13 A3006 RMK A01 T01960127  RH  064%=      5-min Rain = 0
KDO1 121351Z 09000KT 20/13 A3006 RMK A01 T01960127  RH  064%=      5-min Rain = 0
KDO1 121352Z 00000KT 20/13 A3006 RMK A01 T01960128  RH  065%=      5-min Rain = 0
KDO1 121353Z 00000KT 20/13 A3006 RMK A01 T01960128  RH  065%=      5-min Rain = 0
KDO1 121354Z 00000KT 20/13 A3006 RMK A01 T01960128  RH  065%=      5-min Rain = 0
KDO1 121355Z 00000KT 20/13 A3006 RMK A01 T01960127  RH  064%=      5-min Rain = 0
KDO1 121356Z 00000KT 20/13 A3006 RMK A01 T01970127  RH  064%=      5-min Rain = 0
KDO1 121357Z 25000KT 20/13 A3006 RMK A01 T01960127  RH  064%=      5-min Rain = 0
KDO1 121358Z 23001KT 20/13 A3006 RMK A01 T01970129  RH  065%=      5-min Rain = 0
KDO1 121359Z 24001KT 20/13 A3006 RMK A01 T01970129  RH  065%=      5-min Rain = 0
KDO1 121400Z 24001KT 20/13 A3006 RMK A01 T01980130  RH  065%=      5-min Rain = 0
KDO1 121401Z 25000KT 20/13 A3005 RMK A01 T01980130  RH  065%=      5-min Rain = 0
KDO1 121402Z 24001KT 20/13 A3005 RMK A01 T01990130  RH  064%=      5-min Rain = 0
KDO1 121403Z 22000KT 20/13 A3005 RMK A01 T02000130  RH  064%=      5-min Rain = 0
KDO1 121404Z 00000KT 20/13 A3005 RMK A01 T02010130  RH  064%=      5-min Rain = 0
KDO1 121405Z 20000KT 20/13 A3005 RMK A01 T02010131  RH  064%=      5-min Rain = 0
KDO1 121406Z 21000KT 20/13 A3005 RMK A01 T02020131  RH  064%=      5-min Rain = 0
KDO1 121407Z 21000KT 20/13 A3005 RMK A01 T02030131  RH  063%=      5-min Rain = 0
KDO1 121408Z 20000KT 20/13 A3005 RMK A01 T02030131  RH  063%=      5-min Rain = 0
KDO1 121409Z 22000KT 20/13 A3005 RMK A01 T02040131  RH  063%=      5-min Rain = 0
KDO1 121410Z 23000KT 21/13 A3005 RMK A01 T02050131  RH  063%=      5-min Rain = 0
KDO1 121411Z 26000KT 21/13 A3005 RMK A01 T02060131  RH  062%=      5-min Rain = 0
KDO1 121412Z 24000KT 21/13 A3005 RMK A01 T02070130  RH  061%=      5-min Rain = 0
KDO1 121413Z 23000KT 21/13 A3005 RMK A01 T02070130  RH  061%=      5-min Rain = 0
KDO1 121414Z 26001KT 21/13 A3005 RMK A01 T02080131  RH  061%=      5-min Rain = 0
KDO1 121415Z 00000KT 21/13 A3005 RMK A01 T02090130  RH  061%=      5-min Rain = 0
KDO1 121416Z 00000KT 21/13 A3005 RMK A01 T02100130  RH  060%=      5-min Rain = 0
KDO1 121417Z 00000KT 21/13 A3005 RMK A01 T02100130  RH  060%=      5-min Rain = 0
KDO1 121418Z 00000KT 21/13 A3005 RMK A01 T02110131  RH  060%=      5-min Rain = 0
KDO1 121419Z 00000KT 21/13 A3005 RMK A01 T02130132  RH  060%=      5-min Rain = 0
KDO1 121420Z 00000KT 21/13 A3005 RMK A01 T02140131  RH  059%=      5-min Rain = 0
KDO1 121421Z 00000KT 22/13 A3005 RMK A01 T02170131  RH  058%=      5-min Rain = 0
KDO1 121422Z 18001KT 22/13 A3005 RMK A01 T02190130  RH  057%=      5-min Rain = 0
KDO1 121423Z 18000KT 22/13 A3005 RMK A01 T02210130  RH  056%=      5-min Rain = 0
KDO1 121424Z 16000KT 22/13 A3005 RMK A01 T02220129  RH  056%=      5-min Rain = 0
KDO1 121425Z 00000KT 22/13 A3005 RMK A01 T02220129  RH  055%=      5-min Rain = 0
KDO1 121426Z 23000KT 22/13 A3005 RMK A01 T02230129  RH  055%=      5-min Rain = 0
KDO1 121427Z 23000KT 22/13 A3005 RMK A01 T02240128  RH  054%=      5-min Rain = 0
KDO1 121428Z 17001KT 22/13 A3005 RMK A01 T02240129  RH  055%=      5-min Rain = 0
KDO1 121429Z 18001KT 23/13 A3005 RMK A01 T02250129  RH  055%=      5-min Rain = 0
KDO1 121430Z 17001KT 23/13 A3005 RMK A01 T02250128  RH  054%=      5-min Rain = 0
KDO1 121431Z 20000KT 23/13 A3005 RMK A01 T02250128  RH  054%=      5-min Rain = 0
KDO1 121432Z 17000KT 23/13 A3005 RMK A01 T02250129  RH  054%=      5-min Rain = 0
KDO1 121433Z 15001KT 23/13 A3005 RMK A01 T02270130  RH  054%=      5-min Rain = 0
KDO1 121434Z 18001KT 23/13 A3005 RMK A01 T02280127  RH  053%=      5-min Rain = 0
KDO1 121435Z 21001KT 23/13 A3005 RMK A01 T02290125  RH  052%=      5-min Rain = 0
KDO1 121436Z 17001KT 23/13 A3005 RMK A01 T02290127  RH  053%=      5-min Rain = 0
KDO1 121437Z 16002KT 23/13 A3005 RMK A01 T02290127  RH  052%=      5-min Rain = 0
KDO1 121438Z 17002KT 23/13 A3005 RMK A01 T02300125  RH  052%=      5-min Rain = 0
KDO1 121439Z 20002KT 23/12 A3005 RMK A01 T02300124  RH  051%=      5-min Rain = 0
KDO1 121440Z 19003KT 23/12 A3005 RMK A01 T02300124  RH  051%=      5-min Rain = 0
KDO1 121441Z 18002KT 23/13 A3005 RMK A01 T02300125  RH  051%=      5-min Rain = 0
KDO1 121442Z 17003KT 23/13 A3005 RMK A01 T02310125  RH  051%=      5-min Rain = 0
KDO1 121443Z 18002KT 23/12 A3005 RMK A01 T02310124  RH  051%=      5-min Rain = 0
KDO1 121444Z 18001KT 23/13 A3005 RMK A01 T02320125  RH  051%=      5-min Rain = 0
KDO1 121445Z 19002KT 23/13 A3005 RMK A01 T02330125  RH  051%=      5-min Rain = 0
KDO1 121446Z 19002KT 23/13 A3005 RMK A01 T02330125  RH  051%=      5-min Rain = 0
KDO1 121447Z 15002KT 23/13 A3005 RMK A01 T02330125  RH  050%=      5-min Rain = 0
KDO1 121448Z 15002KT 23/12 A3005 RMK A01 T02330123  RH  050%=      5-min Rain = 0
KDO1 121449Z 15002KT 23/12 A3005 RMK A01 T02340124  RH  050%=      5-min Rain = 0
KDO1 121450Z 17002KT 24/12 A3005 RMK A01 T02350124  RH  050%=      5-min Rain = 0
KDO1 121451Z 18003KT 24/12 A3005 RMK A01 T02360123  RH  049%=      5-min Rain = 0
KDO1 121452Z 18003KT 24/12 A3005 RMK A01 T02360123  RH  049%=      5-min Rain = 0
KDO1 121453Z 17003KT 24/12 A3005 RMK A01 T02360124  RH  049%=      5-min Rain = 0
KDO1 121454Z 18003KT 24/12 A3005 RMK A01 T02370124  RH  049%=      5-min Rain = 0
KDO1 121455Z 18003KT 24/12 A3005 RMK A01 T02370124  RH  049%=      5-min Rain = 0
KDO1 121456Z 17003KT 24/12 A3005 RMK A01 T02380124  RH  049%=      5-min Rain = 0
KDO1 121457Z 18004KT 24/12 A3005 RMK A01 T02390122  RH  048%=      5-min Rain = 0
KDO1 121458Z 19003KT 24/12 A3005 RMK A01 T02400123  RH  048%=      5-min Rain = 0
KDO1 121459Z 21001KT 24/12 A3005 RMK A01 T02390122  RH  048%=      5-min Rain = 0
KDO1 121500Z 22001KT 24/12 A3005 RMK A01 T02390123  RH  048%=      5-min Rain = 0
KDO1 121501Z 16002KT 24/13 A3005 RMK A01 T02380125  RH  049%=      5-min Rain = 0
KDO1 121502Z 16002KT 24/12 A3005 RMK A01 T02400124  RH  048%=      5-min Rain = 0
KDO1 121503Z 15001KT 24/12 A3005 RMK A01 T02410124  RH  048%=      5-min Rain = 0
KDO1 121504Z 18003KT 24/13 A3005 RMK A01 T02430125  RH  048%=      5-min Rain = 0
KDO1 121505Z 16003KT 24/12 A3005 RMK A01 T02440124  RH  047%=      5-min Rain = 0
KDO1 121506Z 14003KT 25/12 A3005 RMK A01 T02450122  RH  046%=      5-min Rain = 0
KDO1 121507Z 14004KT 24/12 A3005 RMK A01 T02440122  RH  046%=      5-min Rain = 0
KDO1 121508Z 14004KT 25/12 A3005 RMK A01 T02450120  RH  046%=      5-min Rain = 0
KDO1 121509Z 15005KT 25/12 A3005 RMK A01 T02450121  RH  046%=      5-min Rain = 0
KDO1 121510Z 17004KT 25/12 A3005 RMK A01 T02450120  RH  046%=      5-min Rain = 0
KDO1 121511Z 15004KT 25/12 A3005 RMK A01 T02470121  RH  046%=      5-min Rain = 0
KDO1 121512Z 18002KT 25/12 A3005 RMK A01 T02480123  RH  046%=      5-min Rain = 0
KDO1 121513Z 19004KT 25/12 A3005 RMK A01 T02480121  RH  045%=      5-min Rain = 0
KDO1 121514Z 14003KT 25/13 A3005 RMK A01 T02480125  RH  046%=      5-min Rain = 0
KDO1 121515Z 12003KT 25/13 A3005 RMK A01 T02490130  RH  047%=      5-min Rain = 0
KDO1 121516Z 14003KT 25/13 A3005 RMK A01 T02510131  RH  047%=      5-min Rain = 0
KDO1 121517Z 16003KT 25/13 A3005 RMK A01 T02530130  RH  046%=      5-min Rain = 0
KDO1 121518Z 12004KT 25/13 A3005 RMK A01 T02540128  RH  045%=      5-min Rain = 0
KDO1 121519Z 11004KT 26/13 A3005 RMK A01 T02550129  RH  046%=      5-min Rain = 0
KDO1 121520Z 13006KT 26/13 A3005 RMK A01 T02550129  RH  045%=      5-min Rain = 0
KDO1 121521Z 14005KT 26/13 A3005 RMK A01 T02560128  RH  045%=      5-min Rain = 0
KDO1 121522Z 13006KT 26/13 A3005 RMK A01 T02550126  RH  045%=      5-min Rain = 0
KDO1 121523Z 13005KT 25/13 A3005 RMK A01 T02530126  RH  045%=      5-min Rain = 0
KDO1 121524Z 13004KT 25/13 A3005 RMK A01 T02520126  RH  045%=      5-min Rain = 0
KDO1 121525Z 12005KT 25/12 A3005 RMK A01 T02520124  RH  045%=      5-min Rain = 0
KDO1 121526Z 15006KT 25/13 A3005 RMK A01 T02520126  RH  045%=      5-min Rain = 0
KDO1 121527Z 16003KT 25/12 A3005 RMK A01 T02530124  RH  045%=      5-min Rain = 0
KDO1 121528Z 12005KT 25/13 A3005 RMK A01 T02520125  RH  045%=      5-min Rain = 0
KDO1 121529Z 12004KT 25/12 A3005 RMK A01 T02520124  RH  045%=      5-min Rain = 0
KDO1 121530Z 11004KT 25/12 A3005 RMK A01 T02530124  RH  045%=      5-min Rain = 0
KDO1 121531Z 12004KT 26/13 A3005 RMK A01 T02550126  RH  045%=      5-min Rain = 0
KDO1 121532Z 15006KT 26/13 A3005 RMK A01 T02580126  RH  044%=      5-min Rain = 0
KDO1 121533Z 15005KT 26/13 A3005 RMK A01 T02580126  RH  044%=      5-min Rain = 0
KDO1 121534Z 15005KT 26/13 A3005 RMK A01 T02590126  RH  044%=      5-min Rain = 0
KDO1 121535Z 15003KT 26/12 A3005 RMK A01 T02590124  RH  043%=      5-min Rain = 0
KDO1 121536Z 16002KT 26/12 A3005 RMK A01 T02580124  RH  043%=      5-min Rain = 0
KDO1 121537Z 17003KT 26/13 A3005 RMK A01 T02580126  RH  044%=      5-min Rain = 0
KDO1 121538Z 14003KT 26/13 A3005 RMK A01 T02580126  RH  044%=      5-min Rain = 0
KDO1 121539Z 13005KT 26/13 A3005 RMK A01 T02580125  RH  044%=      5-min Rain = 0
KDO1 121540Z 14004KT 26/13 A3005 RMK A01 T02590125  RH  043%=      5-min Rain = 0
KDO1 121541Z 12003KT 26/13 A3005 RMK A01 T02600125  RH  043%=      5-min Rain = 0
KDO1 121542Z 14005KT 26/13 A3005 RMK A01 T02600125  RH  043%=      5-min Rain = 0
KDO1 121543Z 13005KT 26/13 A3005 RMK A01 T02600126  RH  043%=      5-min Rain = 0
KDO1 121544Z 12004KT 26/13 A3005 RMK A01 T02590125  RH  043%=      5-min Rain = 0
KDO1 121545Z 13003KT 26/13 A3005 RMK A01 T02580125  RH  043%=      5-min Rain = 0
KDO1 121546Z 14002KT 26/12 A3005 RMK A01 T02570124  RH  044%=      5-min Rain = 0
KDO1 121547Z 19005KT 26/12 A3005 RMK A01 T02570124  RH  044%=      5-min Rain = 0
KDO1 121548Z 16006KT 26/12 A3005 RMK A01 T02580123  RH  043%=      5-min Rain = 0
KDO1 121549Z 17003KT 26/12 A3005 RMK A01 T02580121  RH  042%=      5-min Rain = 0
KDO1 121550Z 16000KT 26/12 A3005 RMK A01 T02570121  RH  043%=      5-min Rain = 0
KDO1 121551Z 16002G7KT 26/12 A3005 RMK A01 T02570122  RH  043%=      5-min Rain = 0
KDO1 121552Z 14006KT 26/12 A3005 RMK A01 T02580120  RH  042%=      5-min Rain = 0
KDO1 121553Z 13005KT 26/12 A3005 RMK A01 T02590122  RH  042%=      5-min Rain = 0
KDO1 121554Z 16003KT 26/12 A3005 RMK A01 T02610121  RH  042%=      5-min Rain = 0
KDO1 121555Z 19002KT 26/12 A3005 RMK A01 T02620123  RH  042%=      5-min Rain = 0
KDO1 121556Z 12004KT 26/12 A3005 RMK A01 T02630124  RH  042%=      5-min Rain = 0
KDO1 121557Z 14006KT 27/12 A3005 RMK A01 T02650124  RH  042%=      5-min Rain = 0
KDO1 121558Z 17004KT 27/12 A3005 RMK A01 T02660124  RH  041%=      5-min Rain = 0
KDO1 121559Z 23005KT 27/12 A3005 RMK A01 T02660124  RH  041%=      5-min Rain = 0
KDO1 121600Z 23005KT 26/12 A3005 RMK A01 T02640123  RH  042%=      5-min Rain = 0
KDO1 121601Z 20003KT 26/12 A3005 RMK A01 T02620123  RH  042%=      5-min Rain = 0
KDO1 121602Z 18004KT 26/12 A3005 RMK A01 T02620123  RH  042%=      5-min Rain = 0
KDO1 121603Z 18003KT 26/12 A3005 RMK A01 T02620122  RH  042%=      5-min Rain = 0
KDO1 121604Z 16002KT 26/12 A3005 RMK A01 T02610123  RH  042%=      5-min Rain = 0
KDO1 121605Z 19002KT 26/12 A3005 RMK A01 T02620124  RH  042%=      5-min Rain = 0
KDO1 121606Z 18005KT 26/13 A3005 RMK A01 T02640125  RH  042%=      5-min Rain = 0
KDO1 121607Z 18004KT 27/13 A3005 RMK A01 T02660125  RH  042%=      5-min Rain = 0
KDO1 121608Z 18002KT 27/13 A3005 RMK A01 T02660127  RH  042%=      5-min Rain = 0
KDO1 121609Z 14002KT 27/13 A3005 RMK A01 T02660128  RH  042%=      5-min Rain = 0
KDO1 121610Z 11001KT 27/13 A3005 RMK A01 T02680128  RH  042%=      5-min Rain = 0
KDO1 121611Z 17001KT 27/13 A3005 RMK A01 T02690129  RH  042%=      5-min Rain = 0
KDO1 121612Z 22003KT 27/13 A3005 RMK A01 T02710128  RH  041%=      5-min Rain = 0
KDO1 121613Z 17004KT 27/13 A3005 RMK A01 T02720126  RH  040%=      5-min Rain = 0
KDO1 121614Z 18004KT 27/13 A3005 RMK A01 T02710128  RH  041%=      5-min Rain = 0
KDO1 121615Z 21004KT 27/13 A3005 RMK A01 T02720128  RH  041%=      5-min Rain = 0
KDO1 121616Z 23004KT 28/13 A3005 RMK A01 T02760128  RH  040%=      5-min Rain = 0
KDO1 121617Z 23003KT 28/12 A3005 RMK A01 T02760124  RH  039%=      5-min Rain = 0
KDO1 121618Z 24004KT 27/12 A3005 RMK A01 T02730122  RH  039%=      5-min Rain = 0
KDO1 121619Z 24003KT 27/12 A3005 RMK A01 T02680121  RH  040%=      5-min Rain = 0
KDO1 121620Z 20002KT 27/12 A3005 RMK A01 T02670122  RH  041%=      5-min Rain = 0
KDO1 121621Z 16003KT 27/12 A3005 RMK A01 T02670124  RH  041%=      5-min Rain = 0
KDO1 121622Z 12001KT 27/13 A3005 RMK A01 T02690125  RH  041%=      5-min Rain = 0
KDO1 121623Z 14003KT 27/13 A3004 RMK A01 T02700126  RH  041%=      5-min Rain = 0
KDO1 121624Z 13004KT 27/13 A3004 RMK A01 T02720128  RH  041%=      5-min Rain = 0
KDO1 121625Z 16005KT 28/13 A3004 RMK A01 T02750127  RH  040%=      5-min Rain = 0
KDO1 121626Z 15005KT 28/13 A3005 RMK A01 T02780127  RH  039%=      5-min Rain = 0
KDO1 121627Z 17005KT 28/12 A3005 RMK A01 T02800124  RH  038%=      5-min Rain = 0
KDO1 121628Z 15005KT 28/12 A3005 RMK A01 T02780124  RH  039%=      5-min Rain = 0
KDO1 121629Z 15003KT 28/13 A3005 RMK A01 T02750126  RH  039%=      5-min Rain = 0
KDO1 121630Z 16005KT 28/13 A3004 RMK A01 T02750126  RH  040%=      5-min Rain = 0
KDO1 121631Z 18002KT 28/12 A3004 RMK A01 T02760124  RH  039%=      5-min Rain = 0
KDO1 121632Z 15000KT 28/13 A3004 RMK A01 T02760125  RH  039%=      5-min Rain = 0
KDO1 121633Z 10001KT 28/13 A3004 RMK A01 T02780125  RH  039%=      5-min Rain = 0
KDO1 121634Z 09001KT 28/12 A3004 RMK A01 T02790124  RH  038%=      5-min Rain = 0
KDO1 121635Z 07001KT 28/13 A3004 RMK A01 T02800125  RH  038%=      5-min Rain = 0
KDO1 121636Z 19002KT 28/13 A3004 RMK A01 T02810126  RH  038%=      5-min Rain = 0
KDO1 121637Z 19004KT 28/12 A3004 RMK A01 T02810124  RH  038%=      5-min Rain = 0
KDO1 121638Z 15005KT 28/12 A3004 RMK A01 T02790123  RH  038%=      5-min Rain = 0
KDO1 121639Z 12003KT 28/12 A3004 RMK A01 T02790123  RH  038%=      5-min Rain = 0
KDO1 121640Z 09002KT 28/12 A3004 RMK A01 T02780124  RH  038%=      5-min Rain = 0
KDO1 121641Z 20002KT 28/12 A3004 RMK A01 T02800124  RH  038%=      5-min Rain = 0
KDO1 121642Z 20004KT 28/12 A3004 RMK A01 T02810123  RH  038%=      5-min Rain = 0
KDO1 121643Z 17005KT 28/12 A3004 RMK A01 T02810124  RH  038%=      5-min Rain = 0
KDO1 121644Z 14002KT 28/12 A3004 RMK A01 T02800121  RH  037%=      5-min Rain = 0
KDO1 121645Z 15001KT 28/12 A3004 RMK A01 T02790123  RH  038%=      5-min Rain = 0
KDO1 121646Z 35000KT 28/12 A3004 RMK A01 T02810122  RH  037%=      5-min Rain = 0
KDO1 121647Z 03000KT 28/12 A3004 RMK A01 T02820121  RH  037%=      5-min Rain = 0
KDO1 121648Z 29001KT 28/12 A3004 RMK A01 T02790122  RH  038%=      5-min Rain = 0
KDO1 121649Z 29002KT 28/12 A3004 RMK A01 T02780123  RH  038%=      5-min Rain = 0
KDO1 121650Z 32000KT 28/12 A3004 RMK A01 T02790124  RH  038%=      5-min Rain = 0
KDO1 121651Z 14001KT 28/12 A3004 RMK A01 T02810124  RH  038%=      5-min Rain = 0
KDO1 121652Z 15004KT 28/12 A3004 RMK A01 T02830123  RH  037%=      5-min Rain = 0
KDO1 121653Z 14004KT 29/12 A3004 RMK A01 T02850124  RH  037%=      5-min Rain = 0
KDO1 121654Z 13004KT 29/12 A3004 RMK A01 T02860123  RH  036%=      5-min Rain = 0
KDO1 121655Z 09002KT 29/12 A3004 RMK A01 T02860124  RH  037%=      5-min Rain = 0
KDO1 121656Z 04002KT 29/12 A3004 RMK A01 T02850121  RH  036%=      5-min Rain = 0
KDO1 121657Z 03002KT 28/12 A3004 RMK A01 T02810121  RH  037%=      5-min Rain = 0
KDO1 121658Z 08001KT 28/12 A3004 RMK A01 T02800121  RH  037%=      5-min Rain = 0
KDO1 121659Z 16001KT 28/12 A3004 RMK A01 T02800122  RH  037%=      5-min Rain = 0
KDO1 121700Z 19001KT 28/12 A3004 RMK A01 T02800120  RH  037%=      5-min Rain = 0
KDO1 121701Z 15002KT 28/12 A3004 RMK A01 T02810122  RH  037%=      5-min Rain = 0
KDO1 121702Z 15003KT 28/12 A3004 RMK A01 T02810121  RH  037%=      5-min Rain = 0
KDO1 121703Z 16006KT 28/12 A3004 RMK A01 T02830123  RH  037%=      5-min Rain = 0
KDO1 121704Z 16005KT 29/12 A3004 RMK A01 T02850123  RH  037%=      5-min Rain = 0
KDO1 121705Z 17003KT 29/12 A3004 RMK A01 T02860122  RH  036%=      5-min Rain = 0
KDO1 121706Z 16003KT 29/12 A3003 RMK A01 T02870123  RH  036%=      5-min Rain = 0
KDO1 121707Z 14003KT 29/12 A3003 RMK A01 T02870122  RH  036%=      5-min Rain = 0
KDO1 121708Z 16002KT 29/12 A3003 RMK A01 T02870122  RH  036%=      5-min Rain = 0
KDO1 121709Z 17004KT 29/12 A3003 RMK A01 T02870122  RH  036%=      5-min Rain = 0
KDO1 121710Z 14001KT 29/12 A3003 RMK A01 T02860122  RH  036%=      5-min Rain = 0
KDO1 121711Z 00000KT 29/12 A3003 RMK A01 T02850121  RH  036%=      5-min Rain = 0
KDO1 121712Z 02001KT 29/12 A3003 RMK A01 T02860122  RH  036%=      5-min Rain = 0
KDO1 121713Z 01002KT 29/12 A3003 RMK A01 T02860122  RH  036%=      5-min Rain = 0
KDO1 121714Z 02002KT 29/12 A3003 RMK A01 T02860121  RH  036%=      5-min Rain = 0
KDO1 121715Z 01001KT 28/12 A3003 RMK A01 T02840120  RH  036%=      5-min Rain = 0
KDO1 121716Z 30001KT 28/12 A3003 RMK A01 T02830123  RH  037%=      5-min Rain = 0
KDO1 121717Z 21003KT 29/12 A3003 RMK A01 T02850122  RH  037%=      5-min Rain = 0
KDO1 121718Z 19005KT 29/12 A3003 RMK A01 T02870123  RH  036%=      5-min Rain = 0
KDO1 121719Z 19006KT 29/12 A3003 RMK A01 T02890122  RH  036%=      5-min Rain = 0
KDO1 121720Z 19005KT 29/12 A3003 RMK A01 T02890123  RH  036%=      5-min Rain = 0
KDO1 121721Z 19005KT 29/12 A3003 RMK A01 T02880124  RH  036%=      5-min Rain = 0
KDO1 121722Z 19004KT 29/12 A3003 RMK A01 T02880124  RH  036%=      5-min Rain = 0
KDO1 121723Z 18004KT 29/12 A3003 RMK A01 T02880124  RH  036%=      5-min Rain = 0
KDO1 121724Z 20002KT 29/12 A3003 RMK A01 T02890124  RH  036%=      5-min Rain = 0
KDO1 121725Z 17001KT 29/12 A3003 RMK A01 T02880123  RH  036%=      5-min Rain = 0
KDO1 121726Z 21002KT 29/12 A3003 RMK A01 T02870124  RH  037%=      5-min Rain = 0
KDO1 121727Z 20002KT 29/13 A3003 RMK A01 T02890125  RH  036%=      5-min Rain = 0
KDO1 121728Z 21002KT 29/12 A3003 RMK A01 T02900124  RH  036%=      5-min Rain = 0
KDO1 121729Z 30000KT 29/12 A3003 RMK A01 T02880124  RH  036%=      5-min Rain = 0
KDO1 121730Z 00000KT 29/12 A3003 RMK A01 T02880123  RH  036%=      5-min Rain = 0
KDO1 121731Z 19001KT 29/12 A3003 RMK A01 T02870124  RH  037%=      5-min Rain = 0
KDO1 121732Z 20003KT 29/12 A3002 RMK A01 T02870124  RH  036%=      5-min Rain = 0
KDO1 121733Z 21003KT 29/12 A3002 RMK A01 T02870123  RH  036%=      5-min Rain = 0
KDO1 121734Z 21003KT 29/12 A3002 RMK A01 T02870123  RH  036%=      5-min Rain = 0
KDO1 121735Z 12003KT 29/12 A3002 RMK A01 T02870124  RH  037%=      5-min Rain = 0
KDO1 121736Z 12006KT 29/13 A3002 RMK A01 T02910128  RH  037%=      5-min Rain = 0
KDO1 121737Z 12005KT 29/13 A3002 RMK A01 T02940128  RH  036%=      5-min Rain = 0
KDO1 121738Z 13006KT 30/13 A3002 RMK A01 T02950129  RH  036%=      5-min Rain = 0
KDO1 121739Z 14004KT 30/13 A3002 RMK A01 T02950128  RH  036%=      5-min Rain = 0
KDO1 121740Z 14005KT 30/13 A3002 RMK A01 T02950128  RH  036%=      5-min Rain = 0
KDO1 121741Z 13006KT 30/13 A3002 RMK A01 T02960128  RH  036%=      5-min Rain = 0
KDO1 121742Z 14005KT 30/13 A3002 RMK A01 T02970129  RH  036%=      5-min Rain = 0
KDO1 121743Z 15002KT 30/13 A3002 RMK A01 T02970128  RH  035%=      5-min Rain = 0
KDO1 121744Z 13002KT 30/13 A3002 RMK A01 T02960129  RH  036%=      5-min Rain = 0
KDO1 121745Z 15003KT 30/13 A3002 RMK A01 T02960129  RH  036%=      5-min Rain = 0
KDO1 121746Z 13005KT 30/13 A3002 RMK A01 T02970129  RH  036%=      5-min Rain = 0
KDO1 121747Z 12003KT 30/13 A3002 RMK A01 T02970129  RH  036%=      5-min Rain = 0
KDO1 121748Z 14003KT 30/13 A3002 RMK A01 T02970128  RH  035%=      5-min Rain = 0
KDO1 121749Z 18003KT 30/13 A3002 RMK A01 T02970129  RH  036%=      5-min Rain = 0
KDO1 121750Z 16002KT 30/13 A3002 RMK A01 T02970130  RH  036%=      5-min Rain = 0
KDO1 121751Z 12001KT 30/13 A3002 RMK A01 T02980129  RH  035%=      5-min Rain = 0
KDO1 121752Z 21000KT 30/13 A3002 RMK A01 T02990130  RH  035%=      5-min Rain = 0
KDO1 121753Z 24002KT 30/13 A3002 RMK A01 T03000131  RH  036%=      5-min Rain = 0
KDO1 121754Z 26002KT 30/13 A3002 RMK A01 T03030131  RH  035%=      5-min Rain = 0
KDO1 121755Z 26001KT 30/13 A3002 RMK A01 T03030131  RH  035%=      5-min Rain = 0
KDO1 121756Z 09001KT 30/13 A3002 RMK A01 T03030130  RH  035%=      5-min Rain = 0
KDO1 121757Z 12005KT 30/13 A3002 RMK A01 T03030131  RH  035%=      5-min Rain = 0
KDO1 121758Z 14008KT 30/13 A3002 RMK A01 T03030131  RH  035%=      5-min Rain = 0
KDO1 121759Z 14006KT 30/13 A3002 RMK A01 T03030131  RH  035%=      5-min Rain = 0
KDO1 121800Z 14002KT 30/13 A3002 RMK A01 T03020129  RH  035%=      5-min Rain = 0
KDO1 121801Z 11004KT 30/13 A3002 RMK A01 T02990130  RH  036%=      5-min Rain = 0
KDO1 121802Z 13007KT 30/13 A3002 RMK A01 T03000132  RH  036%=      5-min Rain = 0
KDO1 121803Z 12007KT 30/13 A3002 RMK A01 T03040134  RH  035%=      5-min Rain = 0
KDO1 121804Z 11005KT 31/13 A3002 RMK A01 T03070132  RH  034%=      5-min Rain = 0
KDO1 121805Z 13006KT 31/13 A3002 RMK A01 T03070131  RH  034%=      5-min Rain = 0
KDO1 121806Z 13005KT 30/13 A3002 RMK A01 T03040129  RH  034%=      5-min Rain = 0
KDO1 121807Z 12003KT 30/13 A3002 RMK A01 T03030130  RH  035%=      5-min Rain = 0
KDO1 121808Z 13003KT 30/13 A3001 RMK A01 T03020132  RH  035%=      5-min Rain = 0
KDO1 121809Z 20002KT 30/13 A3001 RMK A01 T03030129  RH  034%=      5-min Rain = 0
KDO1 121810Z 25002KT 30/13 A3001 RMK A01 T03030130  RH  035%=      5-min Rain = 0
KDO1 121811Z 25000KT 30/13 A3001 RMK A01 T03000129  RH  035%=      5-min Rain = 0
KDO1 121812Z 14003KT 30/13 A3001 RMK A01 T03020131  RH  035%=      5-min Rain = 0
KDO1 121813Z 14006KT 30/13 A3001 RMK A01 T03040131  RH  035%=      5-min Rain = 0
KDO1 121814Z 16007KT 31/13 A3001 RMK A01 T03050130  RH  034%=      5-min Rain = 0
KDO1 121815Z 16007KT 31/13 A3001 RMK A01 T03050129  RH  034%=      5-min Rain = 0
KDO1 121816Z 17006KT 31/13 A3001 RMK A01 T03050130  RH  034%=      5-min Rain = 0
KDO1 121817Z 16006KT 31/13 A3001 RMK A01 T03050129  RH  034%=      5-min Rain = 0
KDO1 121818Z 20004KT 31/13 A3001 RMK A01 T03050130  RH  034%=      5-min Rain = 0
KDO1 121819Z 21002KT 31/13 A3001 RMK A01 T03050130  RH  034%=      5-min Rain = 0
KDO1 121820Z 15004KT 31/13 A3001 RMK A01 T03080130  RH  034%=      5-min Rain = 0
KDO1 121821Z 14005KT 31/13 A3001 RMK A01 T03090131  RH  034%=      5-min Rain = 0
KDO1 121822Z 15003KT 31/13 A3001 RMK A01 T03120131  RH  033%=      5-min Rain = 0
KDO1 121823Z 13003KT 31/13 A3001 RMK A01 T03120130  RH  033%=      5-min Rain = 0
KDO1 121824Z 12003KT 31/13 A3001 RMK A01 T03120132  RH  033%=      5-min Rain = 0
KDO1 121825Z 14003KT 31/13 A3001 RMK A01 T03130131  RH  033%=      5-min Rain = 0
KDO1 121826Z 17004KT 31/13 A3001 RMK A01 T03140130  RH  033%=      5-min Rain = 0
KDO1 121827Z 15004KT 31/13 A3001 RMK A01 T03140130  RH  033%=      5-min Rain = 0
KDO1 121828Z 16003KT 31/13 A3001 RMK A01 T03120129  RH  033%=      5-min Rain = 0
KDO1 121829Z 14007KT 31/13 A30 RMK A01 T03110130  RH  033%=      5-min Rain = 0
KDO1 121830Z 12006KT 31/13 A30 RMK A01 T03110129  RH  033%=      5-min Rain = 0
KDO1 121831Z 11005KT 31/13 A30 RMK A01 T03100130  RH  033%=      5-min Rain = 0
KDO1 121832Z 12005KT 31/13 A30 RMK A01 T03090129  RH  033%=      5-min Rain = 0
KDO1 121833Z 11006KT 31/13 A30 RMK A01 T03090129  RH  033%=      5-min Rain = 0
KDO1 121834Z 11005KT 31/13 A30 RMK A01 T03090129  RH  033%=      5-min Rain = 0
KDO1 121835Z 11004KT 31/13 A30 RMK A01 T03080128  RH  033%=      5-min Rain = 0
KDO1 121836Z 13002KT 31/13 A30 RMK A01 T03070127  RH  033%=      5-min Rain = 0
KDO1 121837Z 17001KT 31/13 A30 RMK A01 T03050128  RH  034%=      5-min Rain = 0
KDO1 121838Z 16005KT 31/13 A30 RMK A01 T03060128  RH  034%=      5-min Rain = 0
KDO1 121839Z 18005KT 31/13 A30 RMK A01 T03080128  RH  033%=      5-min Rain = 0
KDO1 121840Z 17004KT 31/13 A30 RMK A01 T03080128  RH  033%=      5-min Rain = 0
KDO1 121841Z 19005KT 31/13 A30 RMK A01 T03080128  RH  033%=      5-min Rain = 0
KDO1 121842Z 19004KT 31/13 A30 RMK A01 T03090128  RH  033%=      5-min Rain = 0
KDO1 121843Z 14002KT 31/13 A30 RMK A01 T03090127  RH  033%=      5-min Rain = 0
KDO1 121844Z 08003KT 31/13 A30 RMK A01 T03080129  RH  033%=      5-min Rain = 0
KDO1 121845Z 12004KT 31/13 A30 RMK A01 T03090130  RH  034%=      5-min Rain = 0
KDO1 121846Z 10006KT 31/13 A30 RMK A01 T03100131  RH  033%=      5-min Rain = 0
KDO1 121847Z 11006KT 31/13 A30 RMK A01 T03120130  RH  033%=      5-min Rain = 0
KDO1 121848Z 11003KT 31/13 A30 RMK A01 T03130131  RH  033%=      5-min Rain = 0
KDO1 121849Z 13005KT 31/13 A30 RMK A01 T03140131  RH  033%=      5-min Rain = 0
KDO1 121850Z 15004KT 31/13 A30 RMK A01 T03140129  RH  032%=      5-min Rain = 0
KDO1 121851Z 14006KT 31/13 A30 RMK A01 T03120130  RH  033%=      5-min Rain = 0
KDO1 121852Z 12007KT 31/13 A30 RMK A01 T03130130  RH  033%=      5-min Rain = 0
KDO1 121853Z 11005KT 32/13 A30 RMK A01 T03150128  RH  032%=      5-min Rain = 0
KDO1 121854Z 10009KT 32/13 A2999 RMK A01 T03160129  RH  032%=      5-min Rain = 0
KDO1 121855Z 11007KT 32/13 A2999 RMK A01 T03150127  RH  032%=      5-min Rain = 0
KDO1 121856Z 13006KT 31/13 A2999 RMK A01 T03120125  RH  032%=      5-min Rain = 0
KDO1 121857Z 10006KT 31/13 A2999 RMK A01 T03100127  RH  033%=      5-min Rain = 0
KDO1 121858Z 13005KT 31/13 A2999 RMK A01 T03110126  RH  032%=      5-min Rain = 0
KDO1 121859Z 10006KT 31/13 A2999 RMK A01 T03130125  RH  032%=      5-min Rain = 0
KDO1 121900Z 11005KT 31/12 A2999 RMK A01 T03130124  RH  031%=      5-min Rain = 0
KDO1 121901Z 11003KT 31/12 A2999 RMK A01 T03100124  RH  032%=      5-min Rain = 0
KDO1 121902Z 13003KT 31/13 A2999 RMK A01 T03100125  RH  032%=      5-min Rain = 0
KDO1 121903Z 13004KT 31/13 A2999 RMK A01 T03120125  RH  032%=      5-min Rain = 0
KDO1 121904Z 08004KT 32/13 A2999 RMK A01 T03150127  RH  032%=      5-min Rain = 0
KDO1 121905Z 06005KT 32/13 A2999 RMK A01 T03170126  RH  031%=      5-min Rain = 0
KDO1 121906Z 07006KT 32/13 A2999 RMK A01 T03160127  RH  032%=      5-min Rain = 0
KDO1 121907Z 08005KT 32/13 A2999 RMK A01 T03150127  RH  032%=      5-min Rain = 0
KDO1 121908Z 07004KT 32/13 A2999 RMK A01 T03150125  RH  031%=      5-min Rain = 0
KDO1 121909Z 06006KT 32/13 A2999 RMK A01 T03150126  RH  031%=      5-min Rain = 0
KDO1 121910Z 05006KT 31/13 A2999 RMK A01 T03140125  RH  031%=      5-min Rain = 0
KDO1 121911Z 04004KT 31/12 A2998 RMK A01 T03140123  RH  031%=      5-min Rain = 0
KDO1 121912Z 02006KT 31/12 A2998 RMK A01 T03130123  RH  031%=      5-min Rain = 0
KDO1 121913Z 36004KT 31/12 A2998 RMK A01 T03140121  RH  031%=      5-min Rain = 0
KDO1 121914Z 00001KT 31/12 A2998 RMK A01 T03120119  RH  031%=      5-min Rain = 0
KDO1 121915Z 08004KT 31/12 A2998 RMK A01 T03110122  RH  031%=      5-min Rain = 0
KDO1 121916Z 09005KT 31/12 A2998 RMK A01 T03140121  RH  031%=      5-min Rain = 0
KDO1 121917Z 06004KT 32/12 A2998 RMK A01 T03170120  RH  030%=      5-min Rain = 0
KDO1 121918Z 06004KT 32/12 A2998 RMK A01 T03170121  RH  030%=      5-min Rain = 0
KDO1 121919Z 07003KT 32/12 A2998 RMK A01 T03170120  RH  030%=      5-min Rain = 0
KDO1 121920Z 06003KT 32/12 A2998 RMK A01 T03160120  RH  030%=      5-min Rain = 0
KDO1 121921Z 01001KT 32/12 A2998 RMK A01 T03150120  RH  030%=      5-min Rain = 0
KDO1 121922Z 10003KT 32/12 A2998 RMK A01 T03150121  RH  030%=      5-min Rain = 0
KDO1 121923Z 13003KT 32/12 A2998 RMK A01 T03150121  RH  031%=      5-min Rain = 0
KDO1 121924Z 14004KT 32/12 A2998 RMK A01 T03170120  RH  030%=      5-min Rain = 0
KDO1 121925Z 12004KT 32/12 A2998 RMK A01 T03180121  RH  030%=      5-min Rain = 0
KDO1 121926Z 07006KT 32/12 A2998 RMK A01 T03190123  RH  030%=      5-min Rain = 0
KDO1 121927Z 08005KT 32/12 A2997 RMK A01 T03190124  RH  030%=      5-min Rain = 0
KDO1 121928Z 10005KT 32/12 A2997 RMK A01 T03190124  RH  030%=      5-min Rain = 0
KDO1 121929Z 06006KT 32/12 A2997 RMK A01 T03190123  RH  030%=      5-min Rain = 0
KDO1 121930Z 08004KT 32/12 A2997 RMK A01 T03200122  RH  030%=      5-min Rain = 0
KDO1 121931Z 06006KT 32/12 A2997 RMK A01 T03200122  RH  030%=      5-min Rain = 0
KDO1 121932Z 02003KT 32/12 A2997 RMK A01 T03190119  RH  029%=      5-min Rain = 0
KDO1 121933Z 34002KT 32/12 A2997 RMK A01 T03160119  RH  030%=      5-min Rain = 0
KDO1 121934Z 34002KT 31/12 A2997 RMK A01 T03140119  RH  030%=      5-min Rain = 0
KDO1 121935Z 03001KT 31/12 A2997 RMK A01 T03120119  RH  031%=      5-min Rain = 0
KDO1 121936Z 13003KT 31/12 A2997 RMK A01 T03120122  RH  031%=      5-min Rain = 0
KDO1 121937Z 13007KT 31/12 A2997 RMK A01 T03140124  RH  031%=      5-min Rain = 0
KDO1 121938Z 13007KT 32/12 A2997 RMK A01 T03160122  RH  031%=      5-min Rain = 0
KDO1 121939Z 13004KT 32/12 A2997 RMK A01 T03160124  RH  031%=      5-min Rain = 0
KDO1 121940Z 15004KT 32/12 A2997 RMK A01 T03150124  RH  031%=      5-min Rain = 0
KDO1 121941Z 14005KT 31/12 A2997 RMK A01 T03140124  RH  031%=      5-min Rain = 0
KDO1 121942Z 12006KT 31/13 A2997 RMK A01 T03140127  RH  032%=      5-min Rain = 0
KDO1 121943Z 13007KT 32/13 A2997 RMK A01 T03180126  RH  031%=      5-min Rain = 0
KDO1 121944Z 13006KT 32/13 A2997 RMK A01 T03190127  RH  031%=      5-min Rain = 0
KDO1 121945Z 14003KT 32/13 A2997 RMK A01 T03200126  RH  031%=      5-min Rain = 0
KDO1 121946Z 15002KT 32/13 A2997 RMK A01 T03190125  RH  031%=      5-min Rain = 0
KDO1 121947Z 13003KT 32/13 A2997 RMK A01 T03180127  RH  031%=      5-min Rain = 0
KDO1 121948Z 11004KT 32/13 A2997 RMK A01 T03180126  RH  031%=      5-min Rain = 0
KDO1 121949Z 10006KT 32/13 A2997 RMK A01 T03210126  RH  031%=      5-min Rain = 0
KDO1 121950Z 09006G11KT 32/13 A2997 RMK A01 T03210126  RH  031%=      5-min Rain = 0
KDO1 121951Z 08008KT 32/13 A2997 RMK A01 T03200126  RH  031%=      5-min Rain = 0
KDO1 121952Z 07006KT 32/13 A2997 RMK A01 T03200126  RH  031%=      5-min Rain = 0
KDO1 121953Z 11005KT 32/13 A2997 RMK A01 T03180126  RH  031%=      5-min Rain = 0
KDO1 121954Z 11003KT 32/13 A2996 RMK A01 T03180125  RH  031%=      5-min Rain = 0
KDO1 121955Z 05001KT 32/12 A2996 RMK A01 T03170123  RH  031%=      5-min Rain = 0
KDO1 121956Z 11001KT 32/12 A2996 RMK A01 T03150124  RH  031%=      5-min Rain = 0
KDO1 121957Z 10002KT 32/12 A2996 RMK A01 T03150124  RH  031%=      5-min Rain = 0
KDO1 121958Z 13005KT 32/13 A2996 RMK A01 T03170125  RH  031%=      5-min Rain = 0
KDO1 121959Z 12004KT 32/13 A2996 RMK A01 T03180125  RH  031%=      5-min Rain = 0
KDO1 122000Z 16001KT 32/13 A2996 RMK A01 T03190126  RH  031%=      5-min Rain = 0
KDO1 122001Z 05004KT 32/13 A2996 RMK A01 T03220125  RH  030%=      5-min Rain = 0
KDO1 122002Z 06006KT 32/12 A2996 RMK A01 T03220124  RH  030%=      5-min Rain = 0
KDO1 122003Z 05005KT 32/12 A2996 RMK A01 T03220124  RH  030%=      5-min Rain = 0
KDO1 122004Z 05004KT 32/12 A2996 RMK A01 T03200124  RH  030%=      5-min Rain = 0
KDO1 122005Z 06008KT 32/12 A2996 RMK A01 T03190123  RH  030%=      5-min Rain = 0
KDO1 122006Z 06008KT 32/12 A2996 RMK A01 T03180123  RH  030%=      5-min Rain = 0
KDO1 122007Z 10005KT 32/12 A2996 RMK A01 T03170123  RH  030%=      5-min Rain = 0
KDO1 122008Z 09005KT 32/12 A2996 RMK A01 T03170124  RH  031%=      5-min Rain = 0
KDO1 122009Z 06006KT 32/12 A2996 RMK A01 T03170122  RH  030%=      5-min Rain = 0
KDO1 122010Z 04004KT 32/12 A2996 RMK A01 T03160122  RH  031%=      5-min Rain = 0
KDO1 122011Z 10007KT 32/12 A2996 RMK A01 T03150123  RH  031%=      5-min Rain = 0
KDO1 122012Z 10008KT 32/13 A2996 RMK A01 T03180125  RH  031%=      5-min Rain = 0
KDO1 122013Z 10006KT 32/13 A2996 RMK A01 T03220125  RH  030%=      5-min Rain = 0
KDO1 122014Z 12003KT 32/12 A2996 RMK A01 T03230124  RH  030%=      5-min Rain = 0
KDO1 122015Z 15001KT 32/12 A2995 RMK A01 T03230124  RH  030%=      5-min Rain = 0
KDO1 122016Z 18001KT 32/12 A2995 RMK A01 T03230124  RH  030%=      5-min Rain = 0
KDO1 122017Z 08000KT 32/12 A2995 RMK A01 T03240123  RH  029%=      5-min Rain = 0
KDO1 122018Z 05003KT 33/12 A2995 RMK A01 T03250123  RH  029%=      5-min Rain = 0
KDO1 122019Z 06008KT 33/12 A2995 RMK A01 T03250124  RH  029%=      5-min Rain = 0
KDO1 122020Z 08009KT 32/12 A2995 RMK A01 T03240124  RH  029%=      5-min Rain = 0
KDO1 122021Z 08009KT 32/12 A2995 RMK A01 T03240124  RH  030%=      5-min Rain = 0
KDO1 122022Z 07007KT 32/12 A2995 RMK A01 T03240123  RH  029%=      5-min Rain = 0
KDO1 122023Z 07009KT 32/12 A2995 RMK A01 T03230123  RH  030%=      5-min Rain = 0
KDO1 122024Z 05006KT 32/12 A2995 RMK A01 T03220123  RH  030%=      5-min Rain = 0
KDO1 122025Z 06004KT 32/12 A2995 RMK A01 T03210123  RH  030%=      5-min Rain = 0
KDO1 122026Z 05006KT 32/12 A2995 RMK A01 T03210124  RH  030%=      5-min Rain = 0
KDO1 122027Z 05006KT 32/12 A2995 RMK A01 T03230122  RH  029%=      5-min Rain = 0
KDO1 122028Z 05004KT 32/12 A2995 RMK A01 T03200120  RH  030%=      5-min Rain = 0
KDO1 122029Z 06002KT 32/12 A2995 RMK A01 T03160121  RH  030%=      5-min Rain = 0
KDO1 122030Z 02005KT 32/12 A2995 RMK A01 T03150122  RH  031%=      5-min Rain = 0
KDO1 122031Z 00005KT 32/12 A2995 RMK A01 T03160121  RH  030%=      5-min Rain = 0
KDO1 122032Z 04003KT 31/12 A2995 RMK A01 T03140121  RH  031%=      5-min Rain = 0
KDO1 122033Z 31002KT 31/12 A2995 RMK A01 T03140121  RH  031%=      5-min Rain = 0
KDO1 122034Z 29004KT 32/12 A2994 RMK A01 T03150122  RH  031%=      5-min Rain = 0
KDO1 122035Z 06001KT 32/12 A2994 RMK A01 T03170122  RH  030%=      5-min Rain = 0
KDO1 122036Z 11005KT 32/12 A2994 RMK A01 T03180123  RH  030%=      5-min Rain = 0
KDO1 122037Z 09007KT 32/12 A2994 RMK A01 T03200123  RH  030%=      5-min Rain = 0
KDO1 122038Z 07003KT 32/12 A2994 RMK A01 T03200123  RH  030%=      5-min Rain = 0
KDO1 122039Z 11007KT 32/12 A2994 RMK A01 T03190124  RH  030%=      5-min Rain = 0
KDO1 122040Z 12005KT 32/12 A2994 RMK A01 T03200123  RH  030%=      5-min Rain = 0
KDO1 122041Z 12008KT 32/13 A2994 RMK A01 T03220126  RH  030%=      5-min Rain = 0
KDO1 122042Z 11010KT 32/13 A2994 RMK A01 T03240125  RH  030%=      5-min Rain = 0
KDO1 122043Z 12007KT 33/13 A2994 RMK A01 T03250125  RH  030%=      5-min Rain = 0
KDO1 122044Z 12006KT 32/12 A2994 RMK A01 T03230124  RH  030%=      5-min Rain = 0
KDO1 122045Z 12006KT 32/12 A2994 RMK A01 T03220124  RH  030%=      5-min Rain = 0
KDO1 122046Z 11005KT 32/12 A2994 RMK A01 T03220124  RH  030%=      5-min Rain = 0
KDO1 122047Z 10004KT 32/12 A2994 RMK A01 T03220124  RH  030%=      5-min Rain = 0
KDO1 122048Z 12006KT 32/13 A2994 RMK A01 T03220126  RH  030%=      5-min Rain = 0
KDO1 122049Z 10004KT 32/12 A2994 RMK A01 T03220124  RH  030%=      5-min Rain = 0
KDO1 122050Z 08006KT 32/13 A2994 RMK A01 T03220125  RH  030%=      5-min Rain = 0
KDO1 122051Z 08004KT 32/12 A2994 RMK A01 T03220124  RH  030%=      5-min Rain = 0
KDO1 122052Z 09003KT 32/13 A2994 RMK A01 T03210125  RH  030%=      5-min Rain = 0
KDO1 122053Z 06005KT 32/13 A2994 RMK A01 T03220126  RH  030%=      5-min Rain = 0
KDO1 122054Z 07008KT 33/13 A2994 RMK A01 T03250126  RH  030%=      5-min Rain = 0
KDO1 122055Z 07008KT 33/13 A2994 RMK A01 T03250125  RH  030%=      5-min Rain = 0
KDO1 122056Z 06007KT 32/13 A2994 RMK A01 T03240125  RH  030%=      5-min Rain = 0
KDO1 122057Z 06005KT 32/12 A2994 RMK A01 T03230124  RH  030%=      5-min Rain = 0
KDO1 122058Z 04003KT 32/13 A2994 RMK A01 T03210125  RH  030%=      5-min Rain = 0
KDO1 122059Z 05001KT 32/12 A2994 RMK A01 T03200124  RH  030%=      5-min Rain = 0
KDO1 122100Z 02001KT 32/12 A2994 RMK A01 T03200124  RH  030%=      5-min Rain = 0
KDO1 122101Z 00000KT 32/12 A2993 RMK A01 T03200123  RH  030%=      5-min Rain = 0
KDO1 122102Z 13002KT 32/13 A2993 RMK A01 T03210125  RH  030%=      5-min Rain = 0
KDO1 122103Z 10002KT 32/12 A2993 RMK A01 T03230124  RH  030%=      5-min Rain = 0
KDO1 122104Z 10004KT 32/13 A2993 RMK A01 T03240127  RH  030%=      5-min Rain = 0
KDO1 122105Z 10004KT 33/13 A2993 RMK A01 T03250125  RH  030%=      5-min Rain = 0
KDO1 122106Z 08005KT 33/13 A2993 RMK A01 T03270128  RH  030%=      5-min Rain = 0
KDO1 122107Z 08005KT 33/13 A2993 RMK A01 T03290128  RH  029%=      5-min Rain = 0
KDO1 122108Z 06008KT 33/13 A2993 RMK A01 T03290125  RH  029%=      5-min Rain = 0
KDO1 122109Z 05005KT 33/12 A2993 RMK A01 T03260124  RH  029%=      5-min Rain = 0
KDO1 122110Z 06002KT 32/12 A2993 RMK A01 T03220124  RH  030%=      5-min Rain = 0
KDO1 122111Z 12004KT 32/13 A2993 RMK A01 T03220125  RH  030%=      5-min Rain = 0
KDO1 122112Z 13006KT 32/13 A2993 RMK A01 T03230126  RH  030%=      5-min Rain = 0
KDO1 122113Z 12004KT 33/12 A2993 RMK A01 T03250124  RH  029%=      5-min Rain = 0
KDO1 122114Z 14002KT 32/12 A2993 RMK A01 T03230123  RH  030%=      5-min Rain = 0
KDO1 122115Z 15004KT 32/13 A2993 RMK A01 T03220125  RH  030%=      5-min Rain = 0
KDO1 122116Z 14004KT 32/12 A2993 RMK A01 T03230123  RH  030%=      5-min Rain = 0
KDO1 122117Z 15005KT 32/13 A2993 RMK A01 T03240125  RH  030%=      5-min Rain = 0
KDO1 122118Z 18003KT 32/12 A2993 RMK A01 T03240122  RH  029%=      5-min Rain = 0
KDO1 122119Z 17006KT 32/12 A2993 RMK A01 T03220123  RH  030%=      5-min Rain = 0
KDO1 122120Z 17005KT 32/12 A2993 RMK A01 T03210123  RH  030%=      5-min Rain = 0
KDO1 122121Z 16003KT 32/13 A2993 RMK A01 T03220125  RH  030%=      5-min Rain = 0
KDO1 122122Z 10004KT 32/12 A2993 RMK A01 T03240124  RH  030%=      5-min Rain = 0
KDO1 122123Z 07004KT 33/12 A2993 RMK A01 T03250124  RH  029%=      5-min Rain = 0
KDO1 122124Z 09005KT 32/13 A2993 RMK A01 T03240125  RH  030%=      5-min Rain = 0
KDO1 122125Z 09003KT 32/12 A2993 RMK A01 T03230124  RH  030%=      5-min Rain = 0
KDO1 122126Z 11005KT 32/13 A2993 RMK A01 T03230125  RH  030%=      5-min Rain = 0
KDO1 122127Z 13010KT 32/13 A2992 RMK A01 T03230127  RH  030%=      5-min Rain = 0
KDO1 122128Z 13007KT 32/13 A2993 RMK A01 T03240126  RH  030%=      5-min Rain = 0
KDO1 122129Z 16004KT 32/12 A2993 RMK A01 T03240123  RH  029%=      5-min Rain = 0
KDO1 122130Z 14004KT 32/12 A2992 RMK A01 T03230124  RH  030%=      5-min Rain = 0
KDO1 122131Z 15005KT 32/12 A2992 RMK A01 T03220124  RH  030%=      5-min Rain = 0
KDO1 122132Z 14004KT 32/13 A2992 RMK A01 T03210125  RH  030%=      5-min Rain = 0
KDO1 122133Z 14006KT 32/13 A2992 RMK A01 T03210126  RH  030%=      5-min Rain = 0
KDO1 122134Z 11005KT 32/13 A2992 RMK A01 T03230127  RH  030%=      5-min Rain = 0
KDO1 122135Z 04004KT 33/13 A2992 RMK A01 T03250126  RH  030%=      5-min Rain = 0
KDO1 122136Z 05004KT 33/13 A2992 RMK A01 T03250126  RH  030%=      5-min Rain = 0
KDO1 122137Z 10004KT 33/13 A2992 RMK A01 T03250126  RH  030%=      5-min Rain = 0
KDO1 122138Z 09006KT 32/13 A2992 RMK A01 T03240129  RH  030%=      5-min Rain = 0
KDO1 122139Z 13007KT 32/13 A2992 RMK A01 T03240128  RH  030%=      5-min Rain = 0
KDO1 122140Z 12006KT 33/13 A2992 RMK A01 T03250128  RH  030%=      5-min Rain = 0
KDO1 122141Z 08007KT 33/13 A2992 RMK A01 T03270130  RH  030%=      5-min Rain = 0
KDO1 122142Z 06006KT 33/13 A2992 RMK A01 T03280127  RH  029%=      5-min Rain = 0
KDO1 122143Z 10002KT 33/13 A2992 RMK A01 T03270128  RH  030%=      5-min Rain = 0
KDO1 122144Z 05002KT 33/13 A2992 RMK A01 T03270127  RH  030%=      5-min Rain = 0
KDO1 122145Z 07003KT 33/13 A2992 RMK A01 T03270126  RH  029%=      5-min Rain = 0
KDO1 122146Z 11005KT 33/13 A2992 RMK A01 T03250127  RH  030%=      5-min Rain = 0
KDO1 122147Z 13006KT 32/13 A2992 RMK A01 T03240127  RH  030%=      5-min Rain = 0
KDO1 122148Z 13005KT 32/13 A2992 RMK A01 T03230128  RH  031%=      5-min Rain = 0
KDO1 122149Z 11005KT 33/13 A2992 RMK A01 T03250128  RH  030%=      5-min Rain = 0
KDO1 122150Z 09008KT 33/13 A2992 RMK A01 T03270129  RH  030%=      5-min Rain = 0
KDO1 122151Z 10008KT 33/13 A2992 RMK A01 T03290129  RH  030%=      5-min Rain = 0
KDO1 122152Z 09006KT 33/13 A2992 RMK A01 T03300129  RH  029%=      5-min Rain = 0
KDO1 122153Z 09005KT 33/13 A2992 RMK A01 T03310129  RH  029%=      5-min Rain = 0
KDO1 122154Z 11005KT 33/13 A2992 RMK A01 T03310130  RH  029%=      5-min Rain = 0
KDO1 122155Z 09006KT 33/13 A2992 RMK A01 T03300128  RH  029%=      5-min Rain = 0
KDO1 122156Z 09009KT 33/13 A2992 RMK A01 T03280127  RH  030%=      5-min Rain = 0
KDO1 122157Z 10007KT 33/13 A2992 RMK A01 T03260127  RH  030%=      5-min Rain = 0
KDO1 122158Z 13004KT 32/13 A2992 RMK A01 T03240127  RH  030%=      5-min Rain = 0
KDO1 122159Z 08004G9KT 32/13 A2992 RMK A01 T03230128  RH  030%=      5-min Rain = 0
KDO1 122200Z 07009KT 32/13 A2992 RMK A01 T03240127  RH  030%=      5-min Rain = 0
KDO1 122201Z 08009KT 32/13 A2992 RMK A01 T03240126  RH  030%=      5-min Rain = 0
KDO1 122202Z 08007KT 32/13 A2992 RMK A01 T03230126  RH  030%=      5-min Rain = 0
KDO1 122203Z 08008KT 32/13 A2992 RMK A01 T03220126  RH  030%=      5-min Rain = 0
KDO1 122204Z 09007KT 32/13 A2992 RMK A01 T03230126  RH  030%=      5-min Rain = 0
KDO1 122205Z 09008KT 32/13 A2992 RMK A01 T03230126  RH  030%=      5-min Rain = 0
KDO1 122206Z 08007KT 32/13 A2992 RMK A01 T03230126  RH  030%=      5-min Rain = 0
KDO1 122207Z 09005KT 32/13 A2992 RMK A01 T03220127  RH  030%=      5-min Rain = 0
KDO1 122208Z 09006KT 32/13 A2992 RMK A01 T03230125  RH  030%=      5-min Rain = 0
KDO1 122209Z 08002KT 32/13 A2992 RMK A01 T03220126  RH  030%=      5-min Rain = 0
KDO1 122210Z 10002KT 32/13 A2992 RMK A01 T03220127  RH  031%=      5-min Rain = 0
KDO1 122211Z 11002KT 32/13 A2991 RMK A01 T03230126  RH  030%=      5-min Rain = 0
KDO1 122212Z 11004KT 32/13 A2991 RMK A01 T03240127  RH  030%=      5-min Rain = 0
KDO1 122213Z 12005KT 33/13 A2991 RMK A01 T03250126  RH  030%=      5-min Rain = 0
KDO1 122214Z 11006KT 33/13 A2991 RMK A01 T03250127  RH  030%=      5-min Rain = 0
KDO1 122215Z 09005KT 33/13 A2991 RMK A01 T03250128  RH  030%=      5-min Rain = 0
KDO1 122216Z 11009KT 33/13 A2991 RMK A01 T03250128  RH  030%=      5-min Rain = 0
KDO1 122217Z 10010KT 32/13 A2991 RMK A01 T03240127  RH  030%=      5-min Rain = 0
KDO1 122218Z 08008KT 32/13 A2991 RMK A01 T03220127  RH  030%=      5-min Rain = 0
KDO1 122219Z 08009KT 32/13 A2991 RMK A01 T03210127  RH  031%=      5-min Rain = 0
KDO1 122220Z 10007KT 32/13 A2991 RMK A01 T03220126  RH  030%=      5-min Rain = 0
KDO1 122221Z 12007KT 32/13 A2991 RMK A01 T03220127  RH  030%=      5-min Rain = 0
KDO1 122222Z 10008KT 32/13 A2991 RMK A01 T03230128  RH  031%=      5-min Rain = 0
KDO1 122223Z 09008KT 32/13 A2991 RMK A01 T03230126  RH  030%=      5-min Rain = 0
KDO1 122224Z 08011KT 32/13 A2991 RMK A01 T03220126  RH  030%=      5-min Rain = 0
KDO1 122225Z 08010KT 32/13 A2991 RMK A01 T03190125  RH  031%=      5-min Rain = 0
KDO1 122226Z 09008KT 32/13 A2991 RMK A01 T03190126  RH  031%=      5-min Rain = 0
KDO1 122227Z 10010KT 32/13 A2991 RMK A01 T03180125  RH  031%=      5-min Rain = 0
KDO1 122228Z 08010KT 32/13 A2991 RMK A01 T03190125  RH  031%=      5-min Rain = 0
KDO1 122229Z 09010KT 32/13 A2991 RMK A01 T03200125  RH  030%=      5-min Rain = 0
KDO1 122230Z 08009KT 32/12 A2991 RMK A01 T03180123  RH  030%=      5-min Rain = 0
KDO1 122231Z 08010KT 32/12 A2991 RMK A01 T03170124  RH  031%=      5-min Rain = 0
KDO1 122232Z 08009KT 32/12 A2991 RMK A01 T03160123  RH  031%=      5-min Rain = 0
KDO1 122233Z 09008KT 32/12 A2991 RMK A01 T03170124  RH  031%=      5-min Rain = 0
KDO1 122234Z 09008KT 32/12 A2991 RMK A01 T03170124  RH  031%=      5-min Rain = 0
KDO1 122235Z 08011KT 32/12 A2991 RMK A01 T03170123  RH  031%=      5-min Rain = 0
KDO1 122236Z 09011KT 32/12 A2991 RMK A01 T03170123  RH  031%=      5-min Rain = 0
KDO1 122237Z 09008KT 32/12 A2991 RMK A01 T03150124  RH  031%=      5-min Rain = 0
KDO1 122238Z 08008KT 32/12 A2991 RMK A01 T03160124  RH  031%=      5-min Rain = 0
KDO1 122239Z 07007KT 32/12 A2991 RMK A01 T03170124  RH  031%=      5-min Rain = 0
KDO1 122240Z 08007KT 32/12 A2991 RMK A01 T03170123  RH  031%=      5-min Rain = 0
KDO1 122241Z 08009KT 32/12 A2991 RMK A01 T03170123  RH  031%=      5-min Rain = 0
KDO1 122242Z 08007KT 32/12 A2991 RMK A01 T03170124  RH  031%=      5-min Rain = 0
KDO1 122243Z 11006KT 32/13 A2991 RMK A01 T03170125  RH  031%=      5-min Rain = 0
KDO1 122244Z 12007KT 32/13 A2991 RMK A01 T03190125  RH  031%=      5-min Rain = 0
KDO1 122245Z 10007KT 32/13 A2991 RMK A01 T03200125  RH  030%=      5-min Rain = 0
KDO1 122246Z 09006KT 32/12 A2991 RMK A01 T03200123  RH  030%=      5-min Rain = 0
KDO1 122247Z 08009KT 32/12 A2991 RMK A01 T03190124  RH  030%=      5-min Rain = 0
KDO1 122248Z 09006KT 32/12 A2991 RMK A01 T03170122  RH  030%=      5-min Rain = 0
KDO1 122249Z 08004KT 32/12 A2991 RMK A01 T03160122  RH  031%=      5-min Rain = 0
KDO1 122250Z 08008KT 32/12 A2991 RMK A01 T03150123  RH  031%=      5-min Rain = 0
KDO1 122251Z 08008KT 32/12 A2991 RMK A01 T03160122  RH  031%=      5-min Rain = 0
KDO1 122252Z 08009KT 32/12 A2991 RMK A01 T03160122  RH  030%=      5-min Rain = 0
KDO1 122253Z 08008KT 32/12 A2991 RMK A01 T03160122  RH  031%=      5-min Rain = 0
KDO1 122254Z 07007KT 32/12 A2991 RMK A01 T03150122  RH  031%=      5-min Rain = 0
KDO1 122255Z 07004KT 31/12 A2991 RMK A01 T03140123  RH  031%=      5-min Rain = 0
KDO1 122256Z 09004KT 31/12 A2991 RMK A01 T03130123  RH  031%=      5-min Rain = 0
KDO1 122257Z 11009KT 31/12 A2991 RMK A01 T03140123  RH  031%=      5-min Rain = 0
KDO1 122258Z 12009KT 32/12 A2991 RMK A01 T03150123  RH  031%=      5-min Rain = 0
KDO1 122259Z 12008KT 32/12 A2991 RMK A01 T03150123  RH  031%=      5-min Rain = 0
KDO1 122300Z 11008KT 32/12 A2991 RMK A01 T03150123  RH  031%=      5-min Rain = 0
KDO1 122301Z 10007KT 32/12 A2991 RMK A01 T03150124  RH  031%=      5-min Rain = 0
KDO1 122302Z 09008KT 32/12 A2991 RMK A01 T03160122  RH  031%=      5-min Rain = 0
KDO1 122303Z 07007KT 32/12 A2991 RMK A01 T03160120  RH  030%=      5-min Rain = 0
KDO1 122304Z 08007KT 32/12 A2991 RMK A01 T03160121  RH  030%=      5-min Rain = 0
KDO1 122305Z 09007KT 32/12 A2991 RMK A01 T03150122  RH  031%=      5-min Rain = 0
KDO1 122306Z 10006KT 32/12 A2991 RMK A01 T03150121  RH  030%=      5-min Rain = 0
KDO1 122307Z 09006KT 31/12 A2991 RMK A01 T03140122  RH  031%=      5-min Rain = 0
KDO1 122308Z 09006KT 32/12 A2991 RMK A01 T03150121  RH  031%=      5-min Rain = 0
KDO1 122309Z 11006KT 32/12 A2991 RMK A01 T03150121  RH  030%=      5-min Rain = 0
KDO1 122310Z 09005KT 32/12 A2991 RMK A01 T03150121  RH  030%=      5-min Rain = 0
KDO1 122311Z 07005KT 32/12 A2991 RMK A01 T03150121  RH  030%=      5-min Rain = 0
KDO1 122312Z 08006KT 31/12 A2991 RMK A01 T03140121  RH  031%=      5-min Rain = 0
KDO1 122313Z 08004KT 31/12 A2991 RMK A01 T03130120  RH  031%=      5-min Rain = 0
KDO1 122314Z 10004KT 31/12 A2991 RMK A01 T03120120  RH  031%=      5-min Rain = 0
KDO1 122315Z 10005KT 31/12 A2991 RMK A01 T03110120  RH  031%=      5-min Rain = 0
KDO1 122316Z 11006KT 31/12 A2991 RMK A01 T03110122  RH  032%=      5-min Rain = 0
KDO1 122317Z 10007KT 31/12 A2991 RMK A01 T03110121  RH  031%=      5-min Rain = 0
KDO1 122318Z 09006KT 31/12 A2991 RMK A01 T03110120  RH  031%=      5-min Rain = 0
KDO1 122319Z 10003KT 31/12 A2991 RMK A01 T03110120  RH  031%=      5-min Rain = 0
KDO1 122320Z 11005KT 31/12 A2991 RMK A01 T03110120  RH  031%=      5-min Rain = 0
KDO1 122321Z 11007KT 31/12 A2991 RMK A01 T03100121  RH  031%=      5-min Rain = 0
KDO1 122322Z 11007KT 31/12 A2991 RMK A01 T03110120  RH  031%=      5-min Rain = 0
KDO1 122323Z 09008KT 31/12 A2991 RMK A01 T03110120  RH  031%=      5-min Rain = 0
KDO1 122324Z 09007KT 31/12 A2991 RMK A01 T03110119  RH  031%=      5-min Rain = 0
KDO1 122325Z 12006KT 31/12 A2991 RMK A01 T03110119  RH  031%=      5-min Rain = 0
KDO1 122326Z 11004KT 31/12 A2991 RMK A01 T03100118  RH  031%=      5-min Rain = 0
KDO1 122327Z 11005KT 31/12 A2991 RMK A01 T03100120  RH  031%=      5-min Rain = 0
KDO1 122328Z 10007KT 31/12 A2991 RMK A01 T03100120  RH  031%=      5-min Rain = 0
KDO1 122329Z 10007KT 31/12 A2991 RMK A01 T03120119  RH  031%=      5-min Rain = 0
KDO1 122330Z 10007KT 31/12 A2991 RMK A01 T03120119  RH  031%=      5-min Rain = 0
KDO1 122331Z 11008KT 31/12 A2991 RMK A01 T03120118  RH  031%=      5-min Rain = 0
KDO1 122332Z 12008KT 31/12 A2991 RMK A01 T03110119  RH  031%=      5-min Rain = 0
KDO1 122333Z 11007KT 31/12 A2991 RMK A01 T03120119  RH  031%=      5-min Rain = 0
KDO1 122334Z 11006KT 31/12 A2991 RMK A01 T03120120  RH  031%=      5-min Rain = 0
KDO1 122335Z 12007KT 31/12 A299 RMK A01 T03120119  RH  031%=      5-min Rain = 0
KDO1 122336Z 13006KT 31/12 A299 RMK A01 T03110119  RH  031%=      5-min Rain = 0
KDO1 122337Z 14004KT 31/12 A299 RMK A01 T03110119  RH  031%=      5-min Rain = 0
KDO1 122338Z 11004KT 31/12 A299 RMK A01 T03120120  RH  031%=      5-min Rain = 0
KDO1 122339Z 10006KT 31/12 A299 RMK A01 T03130121  RH  031%=      5-min Rain = 0
KDO1 122340Z 09006KT 31/12 A299 RMK A01 T03130119  RH  030%=      5-min Rain = 0
KDO1 122341Z 09007KT 31/12 A299 RMK A01 T03130119  RH  030%=      5-min Rain = 0
KDO1 122342Z 09006KT 31/12 A299 RMK A01 T03120118  RH  030%=      5-min Rain = 0
KDO1 122343Z 09007KT 31/12 A299 RMK A01 T03120119  RH  031%=      5-min Rain = 0
KDO1 122344Z 10006KT 31/12 A299 RMK A01 T03120118  RH  030%=      5-min Rain = 0
KDO1 122345Z 10006KT 31/12 A299 RMK A01 T03110119  RH  031%=      5-min Rain = 0
KDO1 122346Z 09006KT 31/12 A299 RMK A01 T03110119  RH  031%=      5-min Rain = 0
KDO1 122347Z 09010KT 31/12 A299 RMK A01 T03110119  RH  031%=      5-min Rain = 0
KDO1 122348Z 09008KT 31/12 A299 RMK A01 T03110117  RH  030%=      5-min Rain = 0
KDO1 122349Z 09007KT 31/12 A299 RMK A01 T03100118  RH  031%=      5-min Rain = 0
KDO1 122350Z 09008KT 31/12 A299 RMK A01 T03100118  RH  031%=      5-min Rain = 0
KDO1 122351Z 09007KT 31/12 A299 RMK A01 T03100117  RH  031%=      5-min Rain = 0
KDO1 122352Z 09005KT 31/12 A299 RMK A01 T03090117  RH  031%=      5-min Rain = 0
KDO1 122353Z 09005KT 31/12 A299 RMK A01 T03090118  RH  031%=      5-min Rain = 0
KDO1 122354Z 09005KT 31/12 A299 RMK A01 T03090119  RH  031%=      5-min Rain = 0
KDO1 122355Z 09006KT 31/12 A299 RMK A01 T03090117  RH  031%=      5-min Rain = 0
KDO1 122356Z 08006KT 31/12 A299 RMK A01 T03090118  RH  031%=      5-min Rain = 0
KDO1 122357Z 09007KT 31/12 A299 RMK A01 T03090118  RH  031%=      5-min Rain = 0
KDO1 122358Z 10007KT 31/12 A299 RMK A01 T03090117  RH  031%=      5-min Rain = 0
KDO1 122359Z 10006KT 31/12 A299 RMK A01 T03080118  RH  031%=      5-min Rain = 0
KDO1 130000Z 10007KT 31/12 A299 RMK A01 T03080118  RH  031%=      5-min Rain = 0
KDO1 130001Z 10005KT 31/12 A299 RMK A01 T03070118  RH  031%=      5-min Rain = 0
KDO1 130002Z 10005KT 31/12 A299 RMK A01 T03070119  RH  031%=      5-min Rain = 0
KDO1 130003Z 10004KT 31/12 A299 RMK A01 T03070118  RH  031%=      5-min Rain = 0
KDO1 130004Z 10004KT 31/12 A299 RMK A01 T03070117  RH  031%=      5-min Rain = 0
KDO1 130005Z 10004KT 31/12 A299 RMK A01 T03070118  RH  031%=      5-min Rain = 0
KDO1 130006Z 09007KT 31/12 A299 RMK A01 T03070119  RH  031%=      5-min Rain = 0
KDO1 130007Z 09009KT 31/12 A299 RMK A01 T03060118  RH  031%=      5-min Rain = 0
KDO1 130008Z 09008KT 31/12 A299 RMK A01 T03060118  RH  031%=      5-min Rain = 0
KDO1 130009Z 09006KT 31/12 A299 RMK A01 T03050117  RH  031%=      5-min Rain = 0
KDO1 130010Z 08006KT 31/12 A299 RMK A01 T03050118  RH  032%=      5-min Rain = 0
KDO1 130011Z 08007KT 31/12 A299 RMK A01 T03050117  RH  032%=      5-min Rain = 0
KDO1 130012Z 08007KT 30/12 A299 RMK A01 T03040117  RH  032%=      5-min Rain = 0
KDO1 130013Z 08008KT 30/12 A299 RMK A01 T03030116  RH  032%=      5-min Rain = 0
KDO1 130014Z 09008KT 30/12 A299 RMK A01 T03030116  RH  032%=      5-min Rain = 0
KDO1 130015Z 09007KT 30/12 A299 RMK A01 T03020115  RH  032%=      5-min Rain = 0
KDO1 130016Z 09005KT 30/12 A299 RMK A01 T03020115  RH  032%=      5-min Rain = 0
KDO1 130017Z 10005KT 30/12 A299 RMK A01 T03020116  RH  032%=      5-min Rain = 0
KDO1 130018Z 09006KT 30/12 A299 RMK A01 T03010116  RH  032%=      5-min Rain = 0
KDO1 130019Z 09007KT 30/12 A299 RMK A01 T03010116  RH  032%=      5-min Rain = 0
KDO1 130020Z 10007KT 30/12 A299 RMK A01 T03010116  RH  032%=      5-min Rain = 0
KDO1 130021Z 10007KT 30/12 A299 RMK A01 T03000116  RH  032%=      5-min Rain = 0
KDO1 130022Z 10006KT 30/12 A299 RMK A01 T02990116  RH  032%=      5-min Rain = 0
KDO1 130023Z 10006KT 30/12 A299 RMK A01 T02990116  RH  032%=      5-min Rain = 0
KDO1 130024Z 09007KT 30/12 A299 RMK A01 T02980116  RH  033%=      5-min Rain = 0
KDO1 130025Z 10006KT 30/12 A299 RMK A01 T02980116  RH  033%=      5-min Rain = 0
KDO1 130026Z 10008KT 30/12 A299 RMK A01 T02970117  RH  033%=      5-min Rain = 0
KDO1 130027Z 09007KT 30/12 A299 RMK A01 T02970116  RH  033%=      5-min Rain = 0
KDO1 130028Z 10009KT 30/12 A299 RMK A01 T02960115  RH  033%=      5-min Rain = 0
KDO1 130029Z 09008KT 30/12 A299 RMK A01 T02960115  RH  033%=      5-min Rain = 0
KDO1 130030Z 09008KT 30/12 A299 RMK A01 T02950115  RH  033%=      5-min Rain = 0
KDO1 130031Z 09008KT 29/12 A299 RMK A01 T02940115  RH  033%=      5-min Rain = 0
KDO1 130032Z 10007KT 29/12 A299 RMK A01 T02930115  RH  033%=      5-min Rain = 0
KDO1 130033Z 09007KT 29/12 A299 RMK A01 T02930115  RH  033%=      5-min Rain = 0
KDO1 130034Z 09007KT 29/11 A299 RMK A01 T02920114  RH  033%=      5-min Rain = 0
KDO1 130035Z 09007KT 29/11 A299 RMK A01 T02920114  RH  033%=      5-min Rain = 0
KDO1 130036Z 09006KT 29/11 A299 RMK A01 T02910114  RH  033%=      5-min Rain = 0
KDO1 130037Z 09007KT 29/12 A299 RMK A01 T02910115  RH  034%=      5-min Rain = 0
KDO1 130038Z 09006KT 29/11 A299 RMK A01 T02900114  RH  034%=      5-min Rain = 0
KDO1 130039Z 09006KT 29/12 A299 RMK A01 T02890115  RH  034%=      5-min Rain = 0
KDO1 130040Z 09005KT 29/12 A299 RMK A01 T02890115  RH  034%=      5-min Rain = 0
KDO1 130041Z 09006KT 29/12 A299 RMK A01 T02880116  RH  034%=      5-min Rain = 0
KDO1 130042Z 09006KT 29/12 A299 RMK A01 T02860115  RH  035%=      5-min Rain = 0
KDO1 130043Z 09006KT 29/12 A299 RMK A01 T02860115  RH  035%=      5-min Rain = 0
KDO1 130044Z 09006KT 29/12 A299 RMK A01 T02850115  RH  035%=      5-min Rain = 0
KDO1 130045Z 09007KT 28/12 A299 RMK A01 T02840115  RH  035%=      5-min Rain = 0
KDO1 130046Z 09006KT 28/12 A299 RMK A01 T02840115  RH  035%=      5-min Rain = 0
KDO1 130047Z 09006KT 28/12 A299 RMK A01 T02830115  RH  035%=      5-min Rain = 0
KDO1 130048Z 09006KT 28/12 A299 RMK A01 T02820115  RH  035%=      5-min Rain = 0
KDO1 130049Z 09007KT 28/12 A299 RMK A01 T02820115  RH  036%=      5-min Rain = 0
KDO1 130050Z 10007KT 28/12 A299 RMK A01 T02810115  RH  036%=      5-min Rain = 0
KDO1 130051Z 10006KT 28/12 A299 RMK A01 T02800115  RH  036%=      5-min Rain = 0
KDO1 130052Z 10007KT 28/12 A299 RMK A01 T02800115  RH  036%=      5-min Rain = 0
KDO1 130053Z 11006KT 28/12 A299 RMK A01 T02790116  RH  036%=      5-min Rain = 0
KDO1 130054Z 11005KT 28/12 A299 RMK A01 T02780116  RH  037%=      5-min Rain = 0
KDO1 130055Z 10005KT 28/12 A299 RMK A01 T02770116  RH  037%=      5-min Rain = 0
KDO1 130056Z 11005KT 28/12 A299 RMK A01 T02750116  RH  037%=      5-min Rain = 0
KDO1 130057Z 11005KT 27/12 A299 RMK A01 T02740116  RH  038%=      5-min Rain = 0
KDO1 130058Z 11004KT 27/12 A299 RMK A01 T02720117  RH  038%=      5-min Rain = 0
KDO1 130059Z 11004KT 27/12 A299 RMK A01 T02710117  RH  038%=      5-min Rain = 0
KDO1 130100Z 11005KT 27/12 A299 RMK A01 T02700117  RH  038%=      5-min Rain = 0
KDO1 130101Z 11005KT 27/12 A299 RMK A01 T02690117  RH  039%=      5-min Rain = 0
KDO1 130102Z 11005KT 27/12 A299 RMK A01 T02680117  RH  039%=      5-min Rain = 0
KDO1 130103Z 11005KT 27/12 A299 RMK A01 T02670117  RH  039%=      5-min Rain = 0
KDO1 130104Z 11005KT 27/12 A299 RMK A01 T02670117  RH  039%=      5-min Rain = 0
KDO1 130105Z 11006KT 27/12 A299 RMK A01 T02660116  RH  039%=      5-min Rain = 0
KDO1 130106Z 11005KT 27/12 A299 RMK A01 T02650116  RH  039%=      5-min Rain = 0
KDO1 130107Z 11005KT 27/12 A299 RMK A01 T02650116  RH  039%=      5-min Rain = 0
KDO1 130108Z 11005KT 26/12 A299 RMK A01 T02640116  RH  040%=      5-min Rain = 0
KDO1 130109Z 11005KT 26/12 A299 RMK A01 T02630115  RH  040%=      5-min Rain = 0
KDO1 130110Z 11005KT 26/12 A299 RMK A01 T02630116  RH  040%=      5-min Rain = 0
KDO1 130111Z 11004KT 26/12 A299 RMK A01 T02620115  RH  040%=      5-min Rain = 0
KDO1 130112Z 11005KT 26/12 A299 RMK A01 T02620115  RH  040%=      5-min Rain = 0
KDO1 130113Z 11004KT 26/12 A299 RMK A01 T02610115  RH  040%=      5-min Rain = 0
KDO1 130114Z 11004KT 26/12 A299 RMK A01 T02610115  RH  040%=      5-min Rain = 0
KDO1 130115Z 10004KT 26/12 A299 RMK A01 T02600115  RH  040%=      5-min Rain = 0
KDO1 130116Z 10004KT 26/12 A299 RMK A01 T02590115  RH  041%=      5-min Rain = 0
KDO1 130117Z 11004KT 26/12 A299 RMK A01 T02580115  RH  041%=      5-min Rain = 0
KDO1 130118Z 11004KT 26/12 A299 RMK A01 T02580115  RH  041%=      5-min Rain = 0
KDO1 130119Z 11003KT 26/12 A299 RMK A01 T02570115  RH  041%=      5-min Rain = 0
KDO1 130120Z 11004KT 26/12 A299 RMK A01 T02560115  RH  041%=      5-min Rain = 0
KDO1 130121Z 12003KT 26/12 A299 RMK A01 T02560115  RH  041%=      5-min Rain = 0
KDO1 130122Z 12004KT 26/12 A299 RMK A01 T02550115  RH  041%=      5-min Rain = 0
KDO1 130123Z 11003KT 26/12 A299 RMK A01 T02550115  RH  042%=      5-min Rain = 0
KDO1 130124Z 11003KT 25/12 A299 RMK A01 T02540115  RH  042%=      5-min Rain = 0
KDO1 130125Z 11003KT 25/12 A299 RMK A01 T02540115  RH  042%=      5-min Rain = 0
KDO1 130126Z 11002KT 25/11 A299 RMK A01 T02530114  RH  042%=      5-min Rain = 0
KDO1 130127Z 11002KT 25/12 A299 RMK A01 T02530115  RH  042%=      5-min Rain = 0
KDO1 130128Z 11002KT 25/11 A299 RMK A01 T02530114  RH  042%=      5-min Rain = 0
KDO1 130129Z 11003KT 25/12 A299 RMK A01 T02530115  RH  042%=      5-min Rain = 0
KDO1 130130Z 11002KT 25/12 A299 RMK A01 T02530115  RH  042%=      5-min Rain = 0
KDO1 130131Z 11002KT 25/11 A299 RMK A01 T02530114  RH  042%=      5-min Rain = 0
KDO1 130132Z 12002KT 25/11 A299 RMK A01 T02520114  RH  042%=      5-min Rain = 0
KDO1 130133Z 11002KT 25/11 A299 RMK A01 T02520114  RH  042%=      5-min Rain = 0
KDO1 130134Z 12002KT 25/11 A299 RMK A01 T02520114  RH  042%=      5-min Rain = 0
KDO1 130135Z 12003KT 25/11 A299 RMK A01 T02510114  RH  042%=      5-min Rain = 0
KDO1 130136Z 12003KT 25/11 A299 RMK A01 T02510114  RH  042%=      5-min Rain = 0
KDO1 130137Z 11003KT 25/11 A299 RMK A01 T02500114  RH  043%=      5-min Rain = 0
KDO1 130138Z 12002KT 25/11 A299 RMK A01 T02490114  RH  043%=      5-min Rain = 0
KDO1 130139Z 12002KT 25/11 A299 RMK A01 T02490114  RH  043%=      5-min Rain = 0
KDO1 130140Z 11003KT 25/11 A299 RMK A01 T02490114  RH  043%=      5-min Rain = 0
KDO1 130141Z 11004KT 25/11 A2991 RMK A01 T02490114  RH  043%=      5-min Rain = 0
KDO1 130142Z 12003KT 25/11 A2991 RMK A01 T02490114  RH  043%=      5-min Rain = 0
KDO1 130143Z 12002KT 25/11 A2991 RMK A01 T02490114  RH  043%=      5-min Rain = 0
KDO1 130144Z 12003KT 25/11 A2991 RMK A01 T02490114  RH  043%=      5-min Rain = 0
KDO1 130145Z 12004KT 25/11 A2991 RMK A01 T02490114  RH  043%=      5-min Rain = 0
KDO1 130146Z 12003KT 25/11 A2991 RMK A01 T02490114  RH  043%=      5-min Rain = 0
KDO1 130147Z 13004KT 25/11 A2991 RMK A01 T02490114  RH  043%=      5-min Rain = 0
KDO1 130148Z 11003KT 25/11 A2991 RMK A01 T02490114  RH  043%=      5-min Rain = 0
KDO1 130149Z 10004KT 25/12 A2991 RMK A01 T02490115  RH  043%=      5-min Rain = 0
KDO1 130150Z 11005KT 25/12 A2991 RMK A01 T02490115  RH  043%=      5-min Rain = 0
KDO1 130151Z 11003KT 25/11 A2991 RMK A01 T02490114  RH  043%=      5-min Rain = 0
KDO1 130152Z 11004KT 25/11 A2991 RMK A01 T02490114  RH  043%=      5-min Rain = 0
KDO1 130153Z 10004KT 25/12 A2991 RMK A01 T02490115  RH  043%=      5-min Rain = 0
KDO1 130154Z 11005KT 25/11 A2991 RMK A01 T02480114  RH  043%=      5-min Rain = 0
KDO1 130155Z 10004KT 25/11 A2991 RMK A01 T02480114  RH  043%=      5-min Rain = 0
KDO1 130156Z 11005KT 25/11 A2991 RMK A01 T02480114  RH  043%=      5-min Rain = 0
KDO1 130157Z 11004KT 25/11 A2991 RMK A01 T02470114  RH  043%=      5-min Rain = 0
KDO1 130158Z 10004KT 25/11 A2991 RMK A01 T02460114  RH  043%=      5-min Rain = 0
KDO1 130159Z 09003KT 25/11 A2991 RMK A01 T02450114  RH  044%=      5-min Rain = 0
KDO1 130200Z 09003KT 25/11 A2991 RMK A01 T02450114  RH  044%=      5-min Rain = 0
KDO1 130201Z 09003KT 24/11 A2991 RMK A01 T02440114  RH  044%=      5-min Rain = 0
KDO1 130202Z 09003KT 24/11 A2991 RMK A01 T02430114  RH  044%=      5-min Rain = 0
KDO1 130203Z 09003KT 24/11 A2991 RMK A01 T02420114  RH  045%=      5-min Rain = 0
KDO1 130204Z 09003KT 24/11 A2991 RMK A01 T02420114  RH  045%=      5-min Rain = 0
KDO1 130205Z 08003KT 24/11 A2991 RMK A01 T02410114  RH  045%=      5-min Rain = 0
KDO1 130206Z 08003KT 24/11 A2991 RMK A01 T02400114  RH  045%=      5-min Rain = 0
KDO1 130207Z 09003KT 24/11 A2991 RMK A01 T02400114  RH  045%=      5-min Rain = 0
KDO1 130208Z 09003KT 24/11 A2991 RMK A01 T02390114  RH  045%=      5-min Rain = 0
KDO1 130209Z 09003KT 24/11 A2991 RMK A01 T02390114  RH  046%=      5-min Rain = 0
KDO1 130210Z 09003KT 24/12 A2991 RMK A01 T02380115  RH  046%=      5-min Rain = 0
KDO1 130211Z 09004KT 24/11 A2991 RMK A01 T02370114  RH  046%=      5-min Rain = 0
KDO1 130212Z 09004KT 24/11 A2991 RMK A01 T02370114  RH  046%=      5-min Rain = 0
KDO1 130213Z 09004KT 24/11 A2991 RMK A01 T02370114  RH  046%=      5-min Rain = 0
KDO1 130214Z 09004KT 24/12 A2991 RMK A01 T02360115  RH  046%=      5-min Rain = 0
KDO1 130215Z 09004KT 24/12 A2991 RMK A01 T02360115  RH  046%=      5-min Rain = 0
KDO1 130216Z 09003KT 24/11 A2991 RMK A01 T02350114  RH  046%=      5-min Rain = 0
KDO1 130217Z 10003KT 24/11 A2991 RMK A01 T02350114  RH  047%=      5-min Rain = 0
KDO1 130218Z 10003KT 24/12 A2991 RMK A01 T02350115  RH  047%=      5-min Rain = 0
KDO1 130219Z 10003KT 23/12 A2991 RMK A01 T02340115  RH  047%=      5-min Rain = 0
KDO1 130220Z 10003KT 23/12 A2992 RMK A01 T02340115  RH  047%=      5-min Rain = 0
KDO1 130221Z 10002KT 23/12 A2992 RMK A01 T02340115  RH  047%=      5-min Rain = 0
KDO1 130222Z 11002KT 23/12 A2992 RMK A01 T02330115  RH  047%=      5-min Rain = 0
KDO1 130223Z 11003KT 23/12 A2992 RMK A01 T02330115  RH  047%=      5-min Rain = 0
KDO1 130224Z 11003KT 23/12 A2992 RMK A01 T02320115  RH  048%=      5-min Rain = 0
KDO1 130225Z 11003KT 23/12 A2992 RMK A01 T02320115  RH  048%=      5-min Rain = 0
KDO1 130226Z 11003KT 23/12 A2991 RMK A01 T02320115  RH  048%=      5-min Rain = 0
KDO1 130227Z 11003KT 23/12 A2991 RMK A01 T02310115  RH  048%=      5-min Rain = 0
KDO1 130228Z 11003KT 23/12 A2991 RMK A01 T02310115  RH  048%=      5-min Rain = 0
KDO1 130229Z 11004KT 23/12 A2991 RMK A01 T02310115  RH  048%=      5-min Rain = 0
KDO1 130230Z 10003KT 23/12 A2991 RMK A01 T02310116  RH  048%=      5-min Rain = 0
KDO1 130231Z 11003KT 23/12 A2992 RMK A01 T02310115  RH  048%=      5-min Rain = 0
KDO1 130232Z 10003KT 23/12 A2992 RMK A01 T02310116  RH  048%=      5-min Rain = 0
KDO1 130233Z 11003KT 23/12 A2992 RMK A01 T02310116  RH  048%=      5-min Rain = 0
KDO1 130234Z 11004KT 23/12 A2992 RMK A01 T02310116  RH  048%=      5-min Rain = 0
KDO1 130235Z 11005KT 23/12 A2992 RMK A01 T02310116  RH  048%=      5-min Rain = 0
KDO1 130236Z 11004KT 23/12 A2992 RMK A01 T02320117  RH  048%=      5-min Rain = 0
KDO1 130237Z 10004KT 23/12 A2992 RMK A01 T02330117  RH  048%=      5-min Rain = 0
KDO1 130238Z 10004KT 23/12 A2992 RMK A01 T02330117  RH  048%=      5-min Rain = 0
KDO1 130239Z 10005KT 23/12 A2992 RMK A01 T02330117  RH  048%=      5-min Rain = 0
KDO1 130240Z 11004KT 23/12 A2992 RMK A01 T02340117  RH  048%=      5-min Rain = 0
KDO1 130241Z 10004KT 24/12 A2992 RMK A01 T02350118  RH  048%=      5-min Rain = 0
KDO1 130242Z 11003KT 24/12 A2992 RMK A01 T02350117  RH  048%=      5-min Rain = 0
KDO1 130243Z 10004KT 23/12 A2992 RMK A01 T02340117  RH  048%=      5-min Rain = 0
KDO1 130244Z 09003KT 23/12 A2992 RMK A01 T02340117  RH  048%=      5-min Rain = 0
KDO1 130245Z 10004KT 23/12 A2992 RMK A01 T02330117  RH  048%=      5-min Rain = 0
KDO1 130246Z 10003KT 23/12 A2992 RMK A01 T02320117  RH  048%=      5-min Rain = 0
KDO1 130247Z 09003KT 23/12 A2992 RMK A01 T02310117  RH  048%=      5-min Rain = 0
KDO1 130248Z 10003KT 23/12 A2992 RMK A01 T02310117  RH  049%=      5-min Rain = 0
KDO1 130249Z 09004KT 23/12 A2992 RMK A01 T02310117  RH  049%=      5-min Rain = 0
KDO1 130250Z 09003KT 23/12 A2992 RMK A01 T02300116  RH  049%=      5-min Rain = 0
KDO1 130251Z 08003KT 23/12 A2992 RMK A01 T02300117  RH  049%=      5-min Rain = 0
KDO1 130252Z 09004KT 23/12 A2992 RMK A01 T02300116  RH  049%=      5-min Rain = 0
KDO1 130253Z 09004KT 23/12 A2992 RMK A01 T02300116  RH  049%=      5-min Rain = 0
KDO1 130254Z 09003KT 23/12 A2992 RMK A01 T02300116  RH  049%=      5-min Rain = 0
KDO1 130255Z 09004KT 23/12 A2992 RMK A01 T02300116  RH  049%=      5-min Rain = 0
KDO1 130256Z 08004KT 23/12 A2992 RMK A01 T02300116  RH  049%=      5-min Rain = 0
KDO1 130257Z 08004KT 23/12 A2992 RMK A01 T02300116  RH  048%=      5-min Rain = 0
KDO1 130258Z 08003KT 23/12 A2992 RMK A01 T02300115  RH  048%=      5-min Rain = 0
KDO1 130259Z 08003KT 23/12 A2992 RMK A01 T02290115  RH  048%=      5-min Rain = 0
KDO1 130300Z 08003KT 23/12 A2992 RMK A01 T02290115  RH  048%=      5-min Rain = 0
KDO1 130301Z 08004KT 23/11 A2992 RMK A01 T02290114  RH  049%=      5-min Rain = 0
KDO1 130302Z 08003KT 23/11 A2992 RMK A01 T02280114  RH  049%=      5-min Rain = 0
KDO1 130303Z 08003KT 23/11 A2992 RMK A01 T02280114  RH  049%=      5-min Rain = 0
KDO1 130304Z 08003KT 23/11 A2992 RMK A01 T02280114  RH  049%=      5-min Rain = 0
KDO1 130305Z 07004KT 23/11 A2992 RMK A01 T02280114  RH  049%=      5-min Rain = 0
KDO1 130306Z 07004KT 23/11 A2992 RMK A01 T02280114  RH  049%=      5-min Rain = 0
KDO1 130307Z 08004KT 23/12 A2992 RMK A01 T02280115  RH  049%=      5-min Rain = 0
KDO1 130308Z 06004KT 23/12 A2992 RMK A01 T02280115  RH  049%=      5-min Rain = 0
KDO1 130309Z 07005KT 23/12 A2992 RMK A01 T02280115  RH  049%=      5-min Rain = 0
KDO1 130310Z 07005KT 23/12 A2992 RMK A01 T02270115  RH  049%=      5-min Rain = 0
KDO1 130311Z 06005KT 23/12 A2992 RMK A01 T02270115  RH  049%=      5-min Rain = 0
KDO1 130312Z 07006KT 23/12 A2992 RMK A01 T02250115  RH  050%=      5-min Rain = 0
KDO1 130313Z 07005KT 23/12 A2992 RMK A01 T02250115  RH  050%=      5-min Rain = 0
KDO1 130314Z 07005KT 23/11 A2992 RMK A01 T02250114  RH  049%=      5-min Rain = 0
KDO1 130315Z 06005KT 23/11 A2992 RMK A01 T02260114  RH  049%=      5-min Rain = 0
KDO1 130316Z 06004KT 23/12 A2992 RMK A01 T02260115  RH  049%=      5-min Rain = 0
KDO1 130317Z 06003KT 23/12 A2992 RMK A01 T02260115  RH  049%=      5-min Rain = 0
KDO1 130318Z 06004KT 23/12 A2992 RMK A01 T02250115  RH  050%=      5-min Rain = 0
KDO1 130319Z 07004KT 23/11 A2992 RMK A01 T02250114  RH  049%=      5-min Rain = 0
KDO1 130320Z 07004KT 23/11 A2992 RMK A01 T02250114  RH  049%=      5-min Rain = 0
KDO1 130321Z 08004KT 23/11 A2992 RMK A01 T02260113  RH  049%=      5-min Rain = 0
KDO1 130322Z 07003KT 23/11 A2993 RMK A01 T02260113  RH  049%=      5-min Rain = 0
KDO1 130323Z 08004KT 23/11 A2993 RMK A01 T02270114  RH  049%=      5-min Rain = 0
KDO1 130324Z 07003KT 23/11 A2993 RMK A01 T02260113  RH  049%=      5-min Rain = 0
KDO1 130325Z 08003KT 23/11 A2993 RMK A01 T02250113  RH  049%=      5-min Rain = 0
KDO1 130326Z 08002KT 23/11 A2993 RMK A01 T02250113  RH  049%=      5-min Rain = 0
KDO1 130327Z 08002KT 22/11 A2993 RMK A01 T02240113  RH  049%=      5-min Rain = 0
KDO1 130328Z 07002KT 22/11 A2993 RMK A01 T02240113  RH  049%=      5-min Rain = 0
KDO1 130329Z 07002KT 22/11 A2993 RMK A01 T02230113  RH  050%=      5-min Rain = 0
KDO1 130330Z 07001KT 22/11 A2993 RMK A01 T02230113  RH  050%=      5-min Rain = 0
KDO1 130331Z 07003KT 22/11 A2993 RMK A01 T02220113  RH  050%=      5-min Rain = 0
KDO1 130332Z 07003KT 22/11 A2993 RMK A01 T02220112  RH  050%=      5-min Rain = 0
KDO1 130333Z 08003KT 22/11 A2993 RMK A01 T02220112  RH  050%=      5-min Rain = 0
KDO1 130334Z 08004KT 22/11 A2993 RMK A01 T02210112  RH  050%=      5-min Rain = 0
KDO1 130335Z 08004KT 22/11 A2993 RMK A01 T02200112  RH  050%=      5-min Rain = 0
KDO1 130336Z 08004KT 22/11 A2993 RMK A01 T02200111  RH  050%=      5-min Rain = 0
KDO1 130337Z 08004KT 22/11 A2993 RMK A01 T02190111  RH  050%=      5-min Rain = 0
KDO1 130338Z 08004KT 22/11 A2993 RMK A01 T02180111  RH  050%=      5-min Rain = 0
KDO1 130339Z 08004KT 22/11 A2993 RMK A01 T02180111  RH  051%=      5-min Rain = 0
KDO1 130340Z 08003KT 22/11 A2993 RMK A01 T02170111  RH  051%=      5-min Rain = 0
KDO1 130341Z 08004KT 22/11 A2993 RMK A01 T02160111  RH  051%=      5-min Rain = 0
KDO1 130342Z 08003KT 22/11 A2993 RMK A01 T02160111  RH  051%=      5-min Rain = 0
KDO1 130343Z 07003KT 22/11 A2993 RMK A01 T02150111  RH  051%=      5-min Rain = 0
KDO1 130344Z 08003KT 21/11 A2993 RMK A01 T02140111  RH  052%=      5-min Rain = 0
KDO1 130345Z 08004KT 21/11 A2993 RMK A01 T02140111  RH  052%=      5-min Rain = 0
KDO1 130346Z 08004KT 21/11 A2993 RMK A01 T02140111  RH  052%=      5-min Rain = 0
KDO1 130347Z 07004KT 21/11 A2993 RMK A01 T02130111  RH  052%=      5-min Rain = 0
KDO1 130348Z 08004KT 21/11 A2993 RMK A01 T02130111  RH  052%=      5-min Rain = 0
KDO1 130349Z 08004KT 21/11 A2993 RMK A01 T02130111  RH  052%=      5-min Rain = 0
KDO1 130350Z 07004KT 21/11 A2993 RMK A01 T02120111  RH  052%=      5-min Rain = 0
KDO1 130351Z 08004KT 21/11 A2993 RMK A01 T02120110  RH  052%=      5-min Rain = 0
KDO1 130352Z 08004KT 21/11 A2993 RMK A01 T02120111  RH  052%=      5-min Rain = 0
KDO1 130353Z 08004KT 21/11 A2993 RMK A01 T02110110  RH  052%=      5-min Rain = 0
KDO1 130354Z 07004KT 21/11 A2993 RMK A01 T02110111  RH  052%=      5-min Rain = 0
KDO1 130355Z 07004KT 21/11 A2993 RMK A01 T02110110  RH  053%=      5-min Rain = 0
KDO1 130356Z 08004KT 21/11 A2993 RMK A01 T02100110  RH  053%=      5-min Rain = 0
KDO1 130357Z 08004KT 21/11 A2993 RMK A01 T02100110  RH  053%=      5-min Rain = 0
KDO1 130358Z 07004KT 21/11 A2993 RMK A01 T02100110  RH  053%=      5-min Rain = 0
KDO1 130359Z 07004KT 21/11 A2993 RMK A01 T02090110  RH  053%=      5-min Rain = 0
KDO1 130400Z 07004KT 21/11 A2993 RMK A01 T02090110  RH  053%=      5-min Rain = 0
KDO1 130401Z 07004KT 21/11 A2993 RMK A01 T02090110  RH  053%=      5-min Rain = 0
KDO1 130402Z 07004KT 21/11 A2993 RMK A01 T02090110  RH  053%=      5-min Rain = 0
KDO1 130403Z 07004KT 21/11 A2993 RMK A01 T02090110  RH  053%=      5-min Rain = 0
KDO1 130404Z 07004KT 21/11 A2993 RMK A01 T02090110  RH  053%=      5-min Rain = 0
KDO1 130405Z 07003KT 21/11 A2993 RMK A01 T02090110  RH  053%=      5-min Rain = 0
KDO1 130406Z 07004KT 21/11 A2993 RMK A01 T02090110  RH  053%=      5-min Rain = 0
KDO1 130407Z 06003KT 21/11 A2993 RMK A01 T02090110  RH  053%=      5-min Rain = 0
KDO1 130408Z 07003KT 21/11 A2993 RMK A01 T02090110  RH  053%=      5-min Rain = 0
KDO1 130409Z 07002KT 21/11 A2993 RMK A01 T02090110  RH  053%=      5-min Rain = 0
KDO1 130410Z 08002KT 21/11 A2993 RMK A01 T02090110  RH  053%=      5-min Rain = 0
KDO1 130411Z 08002KT 21/11 A2993 RMK A01 T02090110  RH  053%=      5-min Rain = 0
KDO1 130412Z 08003KT 21/11 A2993 RMK A01 T02090110  RH  053%=      5-min Rain = 0
KDO1 130413Z 08003KT 21/11 A2993 RMK A01 T02090110  RH  053%=      5-min Rain = 0
KDO1 130414Z 07002KT 21/11 A2993 RMK A01 T02080110  RH  053%=      5-min Rain = 0
KDO1 130415Z 07002KT 21/11 A2993 RMK A01 T02090110  RH  053%=      5-min Rain = 0
KDO1 130416Z 07002KT 21/11 A2993 RMK A01 T02090110  RH  053%=      5-min Rain = 0
KDO1 130417Z 07002KT 21/11 A2993 RMK A01 T02080110  RH  053%=      5-min Rain = 0
KDO1 130418Z 07002KT 21/11 A2993 RMK A01 T02080110  RH  053%=      5-min Rain = 0
KDO1 130419Z 07003KT 21/11 A2993 RMK A01 T02080110  RH  053%=      5-min Rain = 0
KDO1 130420Z 07003KT 21/11 A2993 RMK A01 T02070110  RH  054%=      5-min Rain = 0
KDO1 130421Z 07003KT 21/11 A2993 RMK A01 T02070110  RH  054%=      5-min Rain = 0
KDO1 130422Z 07003KT 21/11 A2993 RMK A01 T02070110  RH  054%=      5-min Rain = 0
KDO1 130423Z 07003KT 21/11 A2993 RMK A01 T02070110  RH  054%=      5-min Rain = 0
KDO1 130424Z 07004KT 21/11 A2993 RMK A01 T02070110  RH  054%=      5-min Rain = 0
KDO1 130425Z 06003KT 21/11 A2993 RMK A01 T02060110  RH  054%=      5-min Rain = 0
KDO1 130426Z 06003KT 21/11 A2993 RMK A01 T02060110  RH  054%=      5-min Rain = 0
KDO1 130427Z 06003KT 21/11 A2993 RMK A01 T02060110  RH  054%=      5-min Rain = 0
KDO1 130428Z 06003KT 21/11 A2993 RMK A01 T02060110  RH  054%=      5-min Rain = 0
KDO1 130429Z 06003KT 21/11 A2993 RMK A01 T02050110  RH  054%=      5-min Rain = 0
KDO1 130430Z 07003KT 21/11 A2993 RMK A01 T02050110  RH  054%=      5-min Rain = 0
KDO1 130431Z 07003KT 21/11 A2993 RMK A01 T02050110  RH  054%=      5-min Rain = 0
KDO1 130432Z 07003KT 21/11 A2993 RMK A01 T02050110  RH  054%=      5-min Rain = 0
KDO1 130433Z 06003KT 21/11 A2993 RMK A01 T02050110  RH  054%=      5-min Rain = 0
KDO1 130434Z 05002KT 21/11 A2993 RMK A01 T02050110  RH  054%=      5-min Rain = 0
KDO1 130435Z 05002KT 20/11 A2993 RMK A01 T02040110  RH  055%=      5-min Rain = 0
KDO1 130436Z 05002KT 20/11 A2993 RMK A01 T02040110  RH  055%=      5-min Rain = 0
KDO1 130437Z 04002KT 20/11 A2993 RMK A01 T02030109  RH  055%=      5-min Rain = 0
KDO1 130438Z 03001KT 20/11 A2993 RMK A01 T02030108  RH  055%=      5-min Rain = 0
KDO1 130439Z 05002KT 20/11 A2993 RMK A01 T02020107  RH  054%=      5-min Rain = 0
KDO1 130440Z 05002KT 20/11 A2993 RMK A01 T02010106  RH  054%=      5-min Rain = 0
KDO1 130441Z 05002KT 20/11 A2993 RMK A01 T01990105  RH  054%=      5-min Rain = 0
KDO1 130442Z 06002KT 20/11 A2993 RMK A01 T01980105  RH  055%=      5-min Rain = 0
KDO1 130443Z 05002KT 20/11 A2993 RMK A01 T01970105  RH  055%=      5-min Rain = 0
KDO1 130444Z 06002KT 20/11 A2993 RMK A01 T01970105  RH  056%=      5-min Rain = 0
KDO1 130445Z 06002KT 20/11 A2993 RMK A01 T01960105  RH  056%=      5-min Rain = 0
KDO1 130446Z 06002KT 20/11 A2993 RMK A01 T01960106  RH  056%=      5-min Rain = 0
KDO1 130447Z 06002KT 20/11 A2993 RMK A01 T01960106  RH  056%=      5-min Rain = 0
KDO1 130448Z 06002KT 20/11 A2993 RMK A01 T01960106  RH  056%=      5-min Rain = 0
KDO1 130449Z 06002KT 20/11 A2993 RMK A01 T01960107  RH  056%=      5-min Rain = 0
KDO1 130450Z 06002KT 20/11 A2993 RMK A01 T01970107  RH  056%=      5-min Rain = 0
KDO1 130451Z 06002KT 20/11 A2993 RMK A01 T01970106  RH  056%=      5-min Rain = 0
KDO1 130452Z 05002KT 20/11 A2993 RMK A01 T01970106  RH  056%=      5-min Rain = 0
KDO1 130453Z 06002KT 20/11 A2993 RMK A01 T01970107  RH  056%=      5-min Rain = 0
KDO1 130454Z 05002KT 20/11 A2993 RMK A01 T01960106  RH  056%=      5-min Rain = 0
KDO1 130455Z 05002KT 20/11 A2993 RMK A01 T01960107  RH  056%=      5-min Rain = 0
KDO1 130456Z 05001KT 20/11 A2993 RMK A01 T01960107  RH  056%=      5-min Rain = 0
KDO1 130457Z 05001KT 20/11 A2993 RMK A01 T01960107  RH  056%=      5-min Rain = 0
KDO1 130458Z 05000KT 20/11 A2993 RMK A01 T01960106  RH  056%=      5-min Rain = 0
KDO1 130459Z 05000KT 20/11 A2993 RMK A01 T01960106  RH  056%=      5-min Rain = 0

Page generated in 0.14 seconds.